Observation data for Fort Lancaster on 11/14/2019      Previous  Date       Current Mesonet Observations  Soil Data  Daily Summary Page  Observations in Plain Language
KLA1 140600Z 15006KT 04/03 A3007 RMK A01 T00380032  RH  096%=      5-min Rain = 0
KLA1 140601Z 15005KT 04/03 A3007 RMK A01 T00380032  RH  096%=      5-min Rain = 0
KLA1 140602Z 14005KT 04/03 A3007 RMK A01 T00380032  RH  096%=      5-min Rain = 0
KLA1 140603Z 14005KT 04/03 A3007 RMK A01 T00380032  RH  096%=      5-min Rain = 0
KLA1 140604Z 14005KT 04/03 A3007 RMK A01 T00380032  RH  096%=      5-min Rain = 0
KLA1 140605Z 15005KT 04/03 A3007 RMK A01 T00390033  RH  096%=      5-min Rain = 0
KLA1 140606Z 15007KT 04/03 A3007 RMK A01 T00380033  RH  096%=      5-min Rain = 0
KLA1 140607Z 15007KT 04/03 A3007 RMK A01 T00380033  RH  096%=      5-min Rain = 0
KLA1 140608Z 15007KT 04/03 A3007 RMK A01 T00380032  RH  096%=      5-min Rain = 0
KLA1 140609Z 15007KT 04/03 A3007 RMK A01 T00390033  RH  096%=      5-min Rain = 0
KLA1 140610Z 15007KT 04/03 A3007 RMK A01 T00390033  RH  096%=      5-min Rain = 0
KLA1 140611Z 15007KT 04/03 A3007 RMK A01 T00390033  RH  096%=      5-min Rain = 0
KLA1 140612Z 16007KT 04/03 A3007 RMK A01 T00390032  RH  096%=      5-min Rain = 0
KLA1 140613Z 15007KT 04/03 A3007 RMK A01 T00390033  RH  096%=      5-min Rain = 0
KLA1 140614Z 15008KT 04/03 A3007 RMK A01 T00390032  RH  096%=      5-min Rain = 0
KLA1 140615Z 16008KT 04/03 A3007 RMK A01 T00390032  RH  095%=      5-min Rain = 0
KLA1 140616Z 15008KT 04/03 A3007 RMK A01 T00390032  RH  095%=      5-min Rain = 0
KLA1 140617Z 15007KT 04/03 A3007 RMK A01 T00390032  RH  095%=      5-min Rain = 0
KLA1 140618Z 15005KT 04/03 A3007 RMK A01 T00390032  RH  096%=      5-min Rain = 0
KLA1 140619Z 15004KT 04/03 A3007 RMK A01 T00390032  RH  096%=      5-min Rain = 0
KLA1 140620Z 14003KT 04/03 A3007 RMK A01 T00390032  RH  096%=      5-min Rain = 0
KLA1 140621Z 14005KT 04/03 A3007 RMK A01 T00390032  RH  096%=      5-min Rain = 0
KLA1 140622Z 14004KT 04/03 A3007 RMK A01 T00390032  RH  096%=      5-min Rain = 0
KLA1 140623Z 15004KT 04/03 A3007 RMK A01 T00390032  RH  096%=      5-min Rain = 0
KLA1 140624Z 16005KT 04/03 A3007 RMK A01 T00390033  RH  096%=      5-min Rain = 0
KLA1 140625Z 14003KT 04/03 A3007 RMK A01 T00390032  RH  096%=      5-min Rain = 0
KLA1 140626Z 14005KT 04/03 A3007 RMK A01 T00390033  RH  096%=      5-min Rain = 0
KLA1 140627Z 15005KT 04/03 A3007 RMK A01 T00390032  RH  096%=      5-min Rain = 0
KLA1 140628Z 14004KT 04/03 A3007 RMK A01 T00390032  RH  096%=      5-min Rain = 0
KLA1 140629Z 15004KT 04/03 A3007 RMK A01 T00390033  RH  096%=      5-min Rain = 0
KLA1 140630Z 15006KT 04/03 A3007 RMK A01 T00390033  RH  096%=      5-min Rain = 0
KLA1 140631Z 15006KT 04/03 A3007 RMK A01 T00390033  RH  096%=      5-min Rain = 0
KLA1 140632Z 16005KT 04/03 A3008 RMK A01 T00390033  RH  096%=      5-min Rain = 0
KLA1 140633Z 17004KT 04/03 A3008 RMK A01 T00390033  RH  096%=      5-min Rain = 0
KLA1 140634Z 16003KT 04/03 A3007 RMK A01 T00390033  RH  096%=      5-min Rain = 0
KLA1 140635Z 16004KT 04/03 A3007 RMK A01 T00390033  RH  096%=      5-min Rain = 0
KLA1 140636Z 16004KT 04/03 A3007 RMK A01 T00390033  RH  096%=      5-min Rain = 0
KLA1 140637Z 15004KT 04/03 A3007 RMK A01 T00390033  RH  096%=      5-min Rain = 0
KLA1 140638Z 16005KT 04/03 A3007 RMK A01 T00400034  RH  096%=      5-min Rain = 0
KLA1 140639Z 17006KT 04/03 A3007 RMK A01 T00390033  RH  096%=      5-min Rain = 0
KLA1 140640Z 17005KT 04/03 A3008 RMK A01 T00390033  RH  096%=      5-min Rain = 0
KLA1 140641Z 17004KT 04/03 A3008 RMK A01 T00390033  RH  096%=      5-min Rain = 0
KLA1 140642Z 16003KT 04/03 A3008 RMK A01 T00390033  RH  096%=      5-min Rain = 0
KLA1 140643Z 17004KT 04/03 A3008 RMK A01 T00390033  RH  096%=      5-min Rain = 0
KLA1 140644Z 17003KT 04/03 A3008 RMK A01 T00390033  RH  096%=      5-min Rain = 0
KLA1 140645Z 19004KT 04/03 A3008 RMK A01 T00400033  RH  096%=      5-min Rain = 0
KLA1 140646Z 20004KT 04/03 A3008 RMK A01 T00400034  RH  096%=      5-min Rain = 0
KLA1 140647Z 20004KT 04/03 A3008 RMK A01 T00400034  RH  096%=      5-min Rain = 0
KLA1 140648Z 20003KT 04/03 A3008 RMK A01 T00400033  RH  096%=      5-min Rain = 0
KLA1 140649Z 19003KT 04/03 A3008 RMK A01 T00400033  RH  096%=      5-min Rain = 0
KLA1 140650Z 18003KT 04/03 A3008 RMK A01 T00400034  RH  096%=      5-min Rain = 0
KLA1 140651Z 17002KT 04/03 A3008 RMK A01 T00400033  RH  096%=      5-min Rain = 0
KLA1 140652Z 17002KT 04/03 A3008 RMK A01 T00400034  RH  096%=      5-min Rain = 0
KLA1 140653Z 16003KT 04/03 A3008 RMK A01 T00400033  RH  096%=      5-min Rain = 0
KLA1 140654Z 15003KT 04/03 A3008 RMK A01 T00400034  RH  096%=      5-min Rain = 0
KLA1 140655Z 17006KT 04/03 A3008 RMK A01 T00400034  RH  096%=      5-min Rain = 0
KLA1 140656Z 18005KT 04/03 A3008 RMK A01 T00400033  RH  096%=      5-min Rain = 0
KLA1 140657Z 17004KT 04/03 A3009 RMK A01 T00400034  RH  096%=      5-min Rain = 0
KLA1 140658Z 16003KT 04/03 A3008 RMK A01 T00400034  RH  096%=      5-min Rain = 0
KLA1 140659Z 16004KT 04/03 A3008 RMK A01 T00400034  RH  096%=      5-min Rain = 0
KLA1 140700Z 17004KT 04/03 A3008 RMK A01 T00400034  RH  096%=      5-min Rain = 0
KLA1 140701Z 16004KT 04/03 A3008 RMK A01 T00400034  RH  096%=      5-min Rain = 0
KLA1 140702Z 15004KT 04/03 A3009 RMK A01 T00400034  RH  096%=      5-min Rain = 0
KLA1 140703Z 16004KT 04/03 A3009 RMK A01 T00400034  RH  096%=      5-min Rain = 0
KLA1 140704Z 15005KT 04/03 A3009 RMK A01 T00400034  RH  096%=      5-min Rain = 0
KLA1 140705Z 16005KT 04/04 A3009 RMK A01 T00400035  RH  096%=      5-min Rain = 0
KLA1 140706Z 16004KT 04/04 A3009 RMK A01 T00400035  RH  096%=      5-min Rain = 0
KLA1 140707Z 16004KT 04/04 A3009 RMK A01 T00400035  RH  096%=      5-min Rain = 0
KLA1 140708Z 16005KT 04/04 A3009 RMK A01 T00410035  RH  096%=      5-min Rain = 0
KLA1 140709Z 15005KT 04/04 A3008 RMK A01 T00410035  RH  096%=      5-min Rain = 0
KLA1 140710Z 16005KT 04/04 A3008 RMK A01 T00410035  RH  096%=      5-min Rain = 0
KLA1 140711Z 17005KT 04/04 A3008 RMK A01 T00410035  RH  096%=      5-min Rain = 0
KLA1 140712Z 17005KT 04/04 A3008 RMK A01 T00410035  RH  096%=      5-min Rain = 0
KLA1 140713Z 18005KT 04/03 A3008 RMK A01 T00410034  RH  096%=      5-min Rain = 0
KLA1 140714Z 20005KT 04/03 A3008 RMK A01 T00410034  RH  096%=      5-min Rain = 0
KLA1 140715Z 20006KT 04/04 A3008 RMK A01 T00410035  RH  096%=      5-min Rain = 0
KLA1 140716Z 20005KT 04/04 A3008 RMK A01 T00410035  RH  096%=      5-min Rain = 0
KLA1 140717Z 19004KT 04/04 A3008 RMK A01 T00410035  RH  096%=      5-min Rain = 0
KLA1 140718Z 19004KT 04/04 A3008 RMK A01 T00410035  RH  096%=      5-min Rain = 0
KLA1 140719Z 19004KT 04/04 A3008 RMK A01 T00410035  RH  096%=      5-min Rain = 0
KLA1 140720Z 20005KT 04/04 A3008 RMK A01 T00410036  RH  096%=      5-min Rain = 0
KLA1 140721Z 19004KT 04/04 A3008 RMK A01 T00410035  RH  096%=      5-min Rain = 0
KLA1 140722Z 18004KT 04/04 A3008 RMK A01 T00410035  RH  096%=      5-min Rain = 0
KLA1 140723Z 19004KT 04/04 A3008 RMK A01 T00410035  RH  096%=      5-min Rain = 0
KLA1 140724Z 18004KT 04/04 A3008 RMK A01 T00410035  RH  096%=      5-min Rain = 0
KLA1 140725Z 17003KT 04/04 A3008 RMK A01 T00410035  RH  096%=      5-min Rain = 0
KLA1 140726Z 17003KT 04/04 A3008 RMK A01 T00410035  RH  096%=      5-min Rain = 0
KLA1 140727Z 18004KT 04/04 A3008 RMK A01 T00410035  RH  096%=      5-min Rain = 0
KLA1 140728Z 19004KT 04/04 A3008 RMK A01 T00410035  RH  096%=      5-min Rain = 0
KLA1 140729Z 20003KT 04/04 A3008 RMK A01 T00410035  RH  096%=      5-min Rain = 0
KLA1 140730Z 17004KT 04/04 A3008 RMK A01 T00410036  RH  096%=      5-min Rain = 0
KLA1 140731Z 16004KT 04/04 A3008 RMK A01 T00410035  RH  096%=      5-min Rain = 0
KLA1 140732Z 16005KT 04/04 A3008 RMK A01 T00410035  RH  096%=      5-min Rain = 0
KLA1 140733Z 16005KT 04/04 A3009 RMK A01 T00410035  RH  096%=      5-min Rain = 0
KLA1 140734Z 16004KT 04/04 A3009 RMK A01 T00410035  RH  096%=      5-min Rain = 0
KLA1 140735Z 17004KT 04/04 A3009 RMK A01 T00410035  RH  096%=      5-min Rain = 0
KLA1 140736Z 16005KT 04/04 A3009 RMK A01 T00410036  RH  096%=      5-min Rain = 0
KLA1 140737Z 14004KT 04/04 A3009 RMK A01 T00410035  RH  096%=      5-min Rain = 0
KLA1 140738Z 14004KT 04/04 A3009 RMK A01 T00410036  RH  097%=      5-min Rain = 0
KLA1 140739Z 14004KT 04/04 A3009 RMK A01 T00410036  RH  097%=      5-min Rain = 0
KLA1 140740Z 14005KT 04/04 A3009 RMK A01 T00410036  RH  097%=      5-min Rain = 0
KLA1 140741Z 17004KT 04/04 A3009 RMK A01 T00410036  RH  097%=      5-min Rain = 0
KLA1 140742Z 16005KT 04/04 A3009 RMK A01 T00410036  RH  097%=      5-min Rain = 0
KLA1 140743Z 15004KT 04/04 A3009 RMK A01 T00410036  RH  097%=      5-min Rain = 0
KLA1 140744Z 15004KT 04/04 A3009 RMK A01 T00410036  RH  097%=      5-min Rain = 0
KLA1 140745Z 15004KT 04/04 A3009 RMK A01 T00410036  RH  097%=      5-min Rain = 0
KLA1 140746Z 16004KT 04/04 A3009 RMK A01 T00410036  RH  097%=      5-min Rain = 0
KLA1 140747Z 15004KT 04/04 A3009 RMK A01 T00410036  RH  097%=      5-min Rain = 0
KLA1 140748Z 15005KT 04/04 A3009 RMK A01 T00410036  RH  097%=      5-min Rain = 0
KLA1 140749Z 14005KT 04/04 A3009 RMK A01 T00410036  RH  097%=      5-min Rain = 0
KLA1 140750Z 14005KT 04/04 A3009 RMK A01 T00410036  RH  097%=      5-min Rain = 0
KLA1 140751Z 14005KT 04/04 A3009 RMK A01 T00410036  RH  097%=      5-min Rain = 0
KLA1 140752Z 15005KT 04/04 A3009 RMK A01 T00410036  RH  097%=      5-min Rain = 0
KLA1 140753Z 15005KT 04/04 A301 RMK A01 T00410036  RH  097%=      5-min Rain = 0
KLA1 140754Z 14005KT 04/04 A301 RMK A01 T00410036  RH  097%=      5-min Rain = 0
KLA1 140755Z 14005KT 04/04 A301 RMK A01 T00410036  RH  097%=      5-min Rain = 0
KLA1 140756Z 14005KT 04/04 A301 RMK A01 T00410036  RH  097%=      5-min Rain = 0
KLA1 140757Z 15004KT 04/04 A301 RMK A01 T00410036  RH  097%=      5-min Rain = 0
KLA1 140758Z 14003KT 04/04 A301 RMK A01 T00410036  RH  097%=      5-min Rain = 0
KLA1 140759Z 14004KT 04/04 A301 RMK A01 T00410036  RH  097%=      5-min Rain = 0
KLA1 140800Z 15004KT 04/04 A301 RMK A01 T00410036  RH  097%=      5-min Rain = 0
KLA1 140801Z 14003KT 04/04 A301 RMK A01 T00410036  RH  097%=      5-min Rain = 0
KLA1 140802Z 14004KT 04/04 A301 RMK A01 T00410036  RH  097%=      5-min Rain = 0
KLA1 140803Z 14004KT 04/04 A301 RMK A01 T00410036  RH  097%=      5-min Rain = 0
KLA1 140804Z 14004KT 04/04 A301 RMK A01 T00410036  RH  097%=      5-min Rain = 0
KLA1 140805Z 14003KT 04/04 A301 RMK A01 T00410036  RH  097%=      5-min Rain = 0
KLA1 140806Z 12003KT 04/04 A301 RMK A01 T00410036  RH  097%=      5-min Rain = 0
KLA1 140807Z 14004KT 04/04 A301 RMK A01 T00410036  RH  097%=      5-min Rain = 0
KLA1 140808Z 15004KT 04/04 A301 RMK A01 T00410036  RH  097%=      5-min Rain = 0
KLA1 140809Z 15004KT 04/04 A301 RMK A01 T00410036  RH  097%=      5-min Rain = 0
KLA1 140810Z 14004KT 04/04 A301 RMK A01 T00410036  RH  097%=      5-min Rain = 0
KLA1 140811Z 15003KT 04/04 A301 RMK A01 T00410036  RH  097%=      5-min Rain = 0
KLA1 140812Z 16003KT 04/04 A301 RMK A01 T00410036  RH  097%=      5-min Rain = 0
KLA1 140813Z 16003KT 04/04 A301 RMK A01 T00410036  RH  097%=      5-min Rain = 0
KLA1 140814Z 16002KT 04/04 A301 RMK A01 T00410036  RH  097%=      5-min Rain = 0
KLA1 140815Z 17002KT 04/04 A301 RMK A01 T00410036  RH  096%=      5-min Rain = 0
KLA1 140816Z 15002KT 04/04 A301 RMK A01 T00410036  RH  096%=      5-min Rain = 0
KLA1 140817Z 15001KT 04/04 A301 RMK A01 T00410036  RH  097%=      5-min Rain = 0
KLA1 140818Z 16000KT 04/04 A301 RMK A01 T00410036  RH  097%=      5-min Rain = 0
KLA1 140819Z 15002KT 04/04 A301 RMK A01 T00410036  RH  097%=      5-min Rain = 0
KLA1 140820Z 15002KT 04/04 A301 RMK A01 T00410037  RH  097%=      5-min Rain = 0
KLA1 140821Z 15003KT 04/04 A301 RMK A01 T00410037  RH  097%=      5-min Rain = 0
KLA1 140822Z 16003KT 04/04 A301 RMK A01 T00410037  RH  097%=      5-min Rain = 0
KLA1 140823Z 15002KT 04/04 A301 RMK A01 T00410037  RH  097%=      5-min Rain = 0
KLA1 140824Z 15002KT 04/04 A301 RMK A01 T00410036  RH  097%=      5-min Rain = 0
KLA1 140825Z 17002KT 04/04 A301 RMK A01 T00410036  RH  097%=      5-min Rain = 0
KLA1 140826Z 18002KT 04/04 A301 RMK A01 T00410036  RH  097%=      5-min Rain = 0
KLA1 140827Z 18002KT 04/04 A301 RMK A01 T00410036  RH  097%=      5-min Rain = 0
KLA1 140828Z 18001KT 04/04 A301 RMK A01 T00410036  RH  096%=      5-min Rain = 0
KLA1 140829Z 18000KT 04/04 A301 RMK A01 T00410036  RH  096%=      5-min Rain = 0
KLA1 140830Z 16002KT 04/04 A301 RMK A01 T00410036  RH  096%=      5-min Rain = 0
KLA1 140831Z 17001KT 04/04 A301 RMK A01 T00410036  RH  097%=      5-min Rain = 0
KLA1 140832Z 16001KT 04/04 A301 RMK A01 T00420037  RH  097%=      5-min Rain = 0
KLA1 140833Z 17000KT 04/04 A301 RMK A01 T00420037  RH  097%=      5-min Rain = 0
KLA1 140834Z 21001KT 04/04 A301 RMK A01 T00420037  RH  097%=      5-min Rain = 0
KLA1 140835Z 21001KT 04/04 A301 RMK A01 T00420037  RH  097%=      5-min Rain = 0
KLA1 140836Z 23001KT 04/04 A301 RMK A01 T00420037  RH  097%=      5-min Rain = 0
KLA1 140837Z 23002KT 04/04 A301 RMK A01 T00420037  RH  097%=      5-min Rain = 0
KLA1 140838Z 25003KT 04/04 A301 RMK A01 T00420037  RH  097%=      5-min Rain = 0
KLA1 140839Z 24003KT 04/04 A301 RMK A01 T00420037  RH  097%=      5-min Rain = 0
KLA1 140840Z 23002KT 04/04 A301 RMK A01 T00420037  RH  097%=      5-min Rain = 0
KLA1 140841Z 22002KT 04/04 A301 RMK A01 T00420038  RH  097%=      5-min Rain = 0
KLA1 140842Z 23002KT 04/04 A301 RMK A01 T00420038  RH  097%=      5-min Rain = 0
KLA1 140843Z 23003KT 04/04 A301 RMK A01 T00420038  RH  097%=      5-min Rain = 0
KLA1 140844Z 21004KT 04/04 A301 RMK A01 T00430038  RH  097%=      5-min Rain = 0
KLA1 140845Z 22003KT 04/04 A301 RMK A01 T00430038  RH  097%=      5-min Rain = 0
KLA1 140846Z 23003KT 04/04 A301 RMK A01 T00430038  RH  097%=      5-min Rain = 0
KLA1 140847Z 23003KT 04/04 A3011 RMK A01 T00420038  RH  097%=      5-min Rain = 0
KLA1 140848Z 22003KT 04/04 A3011 RMK A01 T00430038  RH  097%=      5-min Rain = 0
KLA1 140849Z 21003KT 04/04 A3011 RMK A01 T00420038  RH  097%=      5-min Rain = 0
KLA1 140850Z 20003KT 04/04 A3011 RMK A01 T00430038  RH  097%=      5-min Rain = 0
KLA1 140851Z 19003KT 04/04 A3011 RMK A01 T00430038  RH  097%=      5-min Rain = 0
KLA1 140852Z 19003KT 04/04 A3011 RMK A01 T00420037  RH  097%=      5-min Rain = 0
KLA1 140853Z 19003KT 04/04 A3011 RMK A01 T00420037  RH  097%=      5-min Rain = 0
KLA1 140854Z 20003KT 04/04 A3011 RMK A01 T00420037  RH  097%=      5-min Rain = 0
KLA1 140855Z 21003KT 04/04 A3011 RMK A01 T00420038  RH  097%=      5-min Rain = 0
KLA1 140856Z 20002KT 04/04 A3011 RMK A01 T00420038  RH  097%=      5-min Rain = 0
KLA1 140857Z 23003KT 04/04 A3011 RMK A01 T00420038  RH  097%=      5-min Rain = 0
KLA1 140858Z 23003KT 04/04 A3011 RMK A01 T00420038  RH  097%=      5-min Rain = 0
KLA1 140859Z 22003KT 04/04 A3011 RMK A01 T00420038  RH  097%=      5-min Rain = 0
KLA1 140900Z 21003KT 04/04 A3011 RMK A01 T00420038  RH  097%=      5-min Rain = 0
KLA1 140901Z 20003KT 04/04 A3011 RMK A01 T00420038  RH  097%=      5-min Rain = 0
KLA1 140902Z 19004KT 04/04 A3011 RMK A01 T00420038  RH  097%=      5-min Rain = 0
KLA1 140903Z 18003KT 04/04 A3011 RMK A01 T00420039  RH  097%=      5-min Rain = 0
KLA1 140904Z 19003KT 04/04 A3011 RMK A01 T00420039  RH  098%=      5-min Rain = 0
KLA1 140905Z 19003KT 04/04 A3011 RMK A01 T00420038  RH  098%=      5-min Rain = 0
KLA1 140906Z 19004KT 04/04 A3011 RMK A01 T00420039  RH  098%=      5-min Rain = 0
KLA1 140907Z 19003KT 04/04 A3011 RMK A01 T00420039  RH  098%=      5-min Rain = 0
KLA1 140908Z 19002KT 04/04 A3011 RMK A01 T00420039  RH  098%=      5-min Rain = 0
KLA1 140909Z 20002KT 04/04 A3011 RMK A01 T00420039  RH  098%=      5-min Rain = 0
KLA1 140910Z 19003KT 04/04 A3011 RMK A01 T00410039  RH  098%=      5-min Rain = 0
KLA1 140911Z 19002KT 04/04 A3011 RMK A01 T00420039  RH  098%=      5-min Rain = 0
KLA1 140912Z 19002KT 04/04 A3011 RMK A01 T00420039  RH  098%=      5-min Rain = 0
KLA1 140913Z 19001KT 04/04 A3011 RMK A01 T00420039  RH  098%=      5-min Rain = 0
KLA1 140914Z 20001KT 04/04 A3011 RMK A01 T00410039  RH  098%=      5-min Rain = 0
KLA1 140915Z 20001KT 04/04 A3011 RMK A01 T00410039  RH  098%=      5-min Rain = 0
KLA1 140916Z 20001KT 04/04 A3011 RMK A01 T00410039  RH  098%=      5-min Rain = 0
KLA1 140917Z 20000KT 04/04 A3011 RMK A01 T00410039  RH  098%=      5-min Rain = 0
KLA1 140918Z 18001KT 04/04 A3011 RMK A01 T00410039  RH  098%=      5-min Rain = 0
KLA1 140919Z 18001KT 04/04 A3011 RMK A01 T00410039  RH  098%=      5-min Rain = 0
KLA1 140920Z 20001KT 04/04 A3011 RMK A01 T00410039  RH  098%=      5-min Rain = 0
KLA1 140921Z 19001KT 04/04 A3011 RMK A01 T00410039  RH  098%=      5-min Rain = 0
KLA1 140922Z 19001KT 04/04 A3011 RMK A01 T00410039  RH  098%=      5-min Rain = 0
KLA1 140923Z 19002KT 04/04 A3011 RMK A01 T00410039  RH  098%=      5-min Rain = 0
KLA1 140924Z 18001KT 04/04 A3011 RMK A01 T00410039  RH  098%=      5-min Rain = 0
KLA1 140925Z 18000KT 04/04 A3012 RMK A01 T00410039  RH  098%=      5-min Rain = 0
KLA1 140926Z 18000KT 04/04 A3012 RMK A01 T00410039  RH  098%=      5-min Rain = 0
KLA1 140927Z 00000KT 04/04 A3012 RMK A01 T00410039  RH  098%=      5-min Rain = 0
KLA1 140928Z 00000KT 04/04 A3012 RMK A01 T00410039  RH  098%=      5-min Rain = 0
KLA1 140929Z 00000KT 04/04 A3012 RMK A01 T00420039  RH  098%=      5-min Rain = 0
KLA1 140930Z 00000KT 04/04 A3012 RMK A01 T00420039  RH  098%=      5-min Rain = 0
KLA1 140931Z 00000KT 04/04 A3011 RMK A01 T00420039  RH  098%=      5-min Rain = 0
KLA1 140932Z 00000KT 04/04 A3011 RMK A01 T00420039  RH  098%=      5-min Rain = 0
KLA1 140933Z 00000KT 04/04 A3011 RMK A01 T00420039  RH  098%=      5-min Rain = 0
KLA1 140934Z 18000KT 04/04 A3011 RMK A01 T00420039  RH  098%=      5-min Rain = 0
KLA1 140935Z 00000KT 04/04 A3011 RMK A01 T00420039  RH  098%=      5-min Rain = 0
KLA1 140936Z 00000KT 04/04 A3011 RMK A01 T00420039  RH  098%=      5-min Rain = 0
KLA1 140937Z 00000KT 04/04 A3011 RMK A01 T00420039  RH  098%=      5-min Rain = 0
KLA1 140938Z 00000KT 04/04 A3011 RMK A01 T00420039  RH  098%=      5-min Rain = 0
KLA1 140939Z 00000KT 04/04 A3011 RMK A01 T00420040  RH  098%=      5-min Rain = 0
KLA1 140940Z 00000KT 04/04 A3011 RMK A01 T00420040  RH  098%=      5-min Rain = 0
KLA1 140941Z 00000KT 04/04 A3011 RMK A01 T00420040  RH  098%=      5-min Rain = 0
KLA1 140942Z 00000KT 04/04 A3011 RMK A01 T00420040  RH  098%=      5-min Rain = 0
KLA1 140943Z 00000KT 04/04 A3011 RMK A01 T00420039  RH  098%=      5-min Rain = 0
KLA1 140944Z 00000KT 04/04 A3011 RMK A01 T00420040  RH  098%=      5-min Rain = 0
KLA1 140945Z 18000KT 04/04 A3011 RMK A01 T00420039  RH  098%=      5-min Rain = 0
KLA1 140946Z 18000KT 04/04 A3012 RMK A01 T00420039  RH  098%=      5-min Rain = 0
KLA1 140947Z 00000KT 04/04 A3012 RMK A01 T00420039  RH  098%=      5-min Rain = 0
KLA1 140948Z 00000KT 04/04 A3011 RMK A01 T00420039  RH  098%=      5-min Rain = 0
KLA1 140949Z 18000KT 04/04 A3011 RMK A01 T00420039  RH  098%=      5-min Rain = 0
KLA1 140950Z 16000KT 04/04 A3011 RMK A01 T00420039  RH  098%=      5-min Rain = 0
KLA1 140951Z 36000KT 04/04 A3011 RMK A01 T00420039  RH  098%=      5-min Rain = 0
KLA1 140952Z 34001KT 04/04 A3011 RMK A01 T00420040  RH  098%=      5-min Rain = 0
KLA1 140953Z 32003KT 04/04 A3011 RMK A01 T00420039  RH  098%=      5-min Rain = 0
KLA1 140954Z 33004KT 04/04 A3011 RMK A01 T00420040  RH  098%=      5-min Rain = 0
KLA1 140955Z 33003KT 04/04 A3011 RMK A01 T00420040  RH  098%=      5-min Rain = 0
KLA1 140956Z 33002KT 04/04 A3011 RMK A01 T00420040  RH  098%=      5-min Rain = 0
KLA1 140957Z 33001KT 04/04 A3011 RMK A01 T00420039  RH  098%=      5-min Rain = 0
KLA1 140958Z 31002KT 04/04 A3011 RMK A01 T00420040  RH  098%=      5-min Rain = 0
KLA1 140959Z 31001KT 04/04 A3011 RMK A01 T00420040  RH  098%=      5-min Rain = 0
KLA1 141000Z 33000KT 04/04 A3011 RMK A01 T00420040  RH  098%=      5-min Rain = 0
KLA1 141001Z 34000KT 04/04 A3011 RMK A01 T00420040  RH  098%=      5-min Rain = 0
KLA1 141002Z 00000KT 04/04 A3011 RMK A01 T00420040  RH  098%=      5-min Rain = 0
KLA1 141003Z 31001KT 04/04 A3011 RMK A01 T00430040  RH  098%=      5-min Rain = 0
KLA1 141004Z 29001KT 04/04 A3011 RMK A01 T00430040  RH  098%=      5-min Rain = 0
KLA1 141005Z 28002KT 04/04 A3011 RMK A01 T00430040  RH  098%=      5-min Rain = 0
KLA1 141006Z 28001KT 04/04 A3011 RMK A01 T00430040  RH  098%=      5-min Rain = 0
KLA1 141007Z 27002KT 04/04 A3012 RMK A01 T00430041  RH  098%=      5-min Rain = 0
KLA1 141008Z 26002KT 04/04 A3012 RMK A01 T00430041  RH  099%=      5-min Rain = 0
KLA1 141009Z 27001KT 04/04 A3012 RMK A01 T00430041  RH  099%=      5-min Rain = 0
KLA1 141010Z 25000KT 04/04 A3012 RMK A01 T00430041  RH  098%=      5-min Rain = 0
KLA1 141011Z 25001KT 04/04 A3012 RMK A01 T00430041  RH  098%=      5-min Rain = 0
KLA1 141012Z 24002KT 04/04 A3012 RMK A01 T00430041  RH  098%=      5-min Rain = 0
KLA1 141013Z 25002KT 04/04 A3012 RMK A01 T00430041  RH  099%=      5-min Rain = 0
KLA1 141014Z 25002KT 04/04 A3012 RMK A01 T00430041  RH  099%=      5-min Rain = 0
KLA1 141015Z 25002KT 04/04 A3012 RMK A01 T00430041  RH  099%=      5-min Rain = 0
KLA1 141016Z 29003KT 04/04 A3012 RMK A01 T00430041  RH  099%=      5-min Rain = 0
KLA1 141017Z 29003KT 04/04 A3012 RMK A01 T00430042  RH  099%=      5-min Rain = 0
KLA1 141018Z 29002KT 04/04 A3012 RMK A01 T00430042  RH  099%=      5-min Rain = 0
KLA1 141019Z 29003KT 04/04 A3012 RMK A01 T00430042  RH  099%=      5-min Rain = 0
KLA1 141020Z 29003KT 04/04 A3012 RMK A01 T00430041  RH  099%=      5-min Rain = 0
KLA1 141021Z 31003KT 04/04 A3012 RMK A01 T00430042  RH  099%=      5-min Rain = 0
KLA1 141022Z 30003KT 04/04 A3012 RMK A01 T00430042  RH  099%=      5-min Rain = 0
KLA1 141023Z 30003KT 04/04 A3012 RMK A01 T00430042  RH  099%=      5-min Rain = 0
KLA1 141024Z 30004KT 04/04 A3012 RMK A01 T00430042  RH  099%=      5-min Rain = 0
KLA1 141025Z 29001KT 04/04 A3012 RMK A01 T00430042  RH  099%=      5-min Rain = 0
KLA1 141026Z 31001KT 04/04 A3012 RMK A01 T00430042  RH  099%=      5-min Rain = 0
KLA1 141027Z 31002KT 04/04 A3012 RMK A01 T00430042  RH  099%=      5-min Rain = 0
KLA1 141028Z 31002KT 04/04 A3012 RMK A01 T00430041  RH  099%=      5-min Rain = 0
KLA1 141029Z 30003KT 04/04 A3012 RMK A01 T00420041  RH  099%=      5-min Rain = 0
KLA1 141030Z 30003KT 04/04 A3012 RMK A01 T00430042  RH  099%=      5-min Rain = 0
KLA1 141031Z 31003KT 04/04 A3012 RMK A01 T00420042  RH  099%=      5-min Rain = 0
KLA1 141032Z 29002KT 04/04 A3012 RMK A01 T00420042  RH  099%=      5-min Rain = 0
KLA1 141033Z 31003KT 04/04 A3012 RMK A01 T00430042  RH  100%=      5-min Rain = 0
KLA1 141034Z 32003KT 04/04 A3012 RMK A01 T00420042  RH  100%=      5-min Rain = 0
KLA1 141035Z 33003KT 04/04 A3012 RMK A01 T00430042  RH  100%=      5-min Rain = 0
KLA1 141036Z 34002KT 04/04 A3012 RMK A01 T00420042  RH  100%=      5-min Rain = 0
KLA1 141037Z 31002KT 04/04 A3012 RMK A01 T00420041  RH  100%=      5-min Rain = 0
KLA1 141038Z 28001KT 04/04 A3013 RMK A01 T00420042  RH  100%=      5-min Rain = 0
KLA1 141039Z 30001KT 04/04 A3013 RMK A01 T00420042  RH  100%=      5-min Rain = 0
KLA1 141040Z 29002KT 04/04 A3013 RMK A01 T00420042  RH  100%=      5-min Rain = 0
KLA1 141041Z 30002KT 04/04 A3013 RMK A01 T00420042  RH  100%=      5-min Rain = 0
KLA1 141042Z 31002KT 04/04 A3013 RMK A01 T00420042  RH  100%=      5-min Rain = 0
KLA1 141043Z 33003KT 04/04 A3013 RMK A01 T00420042  RH  100%=      5-min Rain = 0
KLA1 141044Z 33003KT 04/04 A3013 RMK A01 T00420042  RH  100%=      5-min Rain = 0
KLA1 141045Z 32003KT 04/04 A3013 RMK A01 T00430042  RH  100%=      5-min Rain = 0
KLA1 141046Z 32003KT 04/04 A3013 RMK A01 T00420042  RH  100%=      5-min Rain = 0
KLA1 141047Z 32002KT 04/04 A3013 RMK A01 T00420042  RH  100%=      5-min Rain = 0
KLA1 141048Z 30002KT 04/04 A3013 RMK A01 T00420042  RH  100%=      5-min Rain = 0
KLA1 141049Z 32002KT 04/04 A3013 RMK A01 T00420042  RH  100%=      5-min Rain = 0
KLA1 141050Z 33002KT 04/04 A3013 RMK A01 T00420042  RH  100%=      5-min Rain = 0
KLA1 141051Z 32003KT 04/04 A3013 RMK A01 T00420042  RH  100%=      5-min Rain = 0
KLA1 141052Z 33003KT 04/04 A3013 RMK A01 T00420042  RH  100%=      5-min Rain = 0
KLA1 141053Z 32003KT 04/04 A3013 RMK A01 T00420042  RH  100%=      5-min Rain = 0
KLA1 141054Z 32003KT 04/04 A3013 RMK A01 T00420042  RH  100%=      5-min Rain = 0
KLA1 141055Z 32005KT 04/04 A3013 RMK A01 T00420042  RH  100%=      5-min Rain = 0
KLA1 141056Z 33004KT 04/04 A3013 RMK A01 T00420042  RH  100%=      5-min Rain = 0
KLA1 141057Z 33003KT 04/04 A3013 RMK A01 T00420042  RH  100%=      5-min Rain = 0
KLA1 141058Z 32005KT 04/04 A3013 RMK A01 T00420042  RH  100%=      5-min Rain = 0
KLA1 141059Z 32004KT 04/04 A3013 RMK A01 T00420042  RH  100%=      5-min Rain = 0
KLA1 141100Z 32006KT 04/04 A3013 RMK A01 T00420042  RH  100%=      5-min Rain = 0
KLA1 141101Z 32005KT 04/04 A3013 RMK A01 T00420042  RH  100%=      5-min Rain = 0
KLA1 141102Z 31005KT 04/04 A3013 RMK A01 T00410041  RH  100%=      5-min Rain = 0
KLA1 141103Z 30005KT 04/04 A3013 RMK A01 T00420042  RH  100%=      5-min Rain = 0
KLA1 141104Z 30004KT 04/04 A3014 RMK A01 T00420041  RH  100%=      5-min Rain = 0
KLA1 141105Z 32004KT 04/04 A3014 RMK A01 T00420042  RH  100%=      5-min Rain = 0
KLA1 141106Z 32004KT 04/04 A3014 RMK A01 T00420042  RH  100%=      5-min Rain = 0
KLA1 141107Z 32004KT 04/04 A3014 RMK A01 T00410041  RH  100%=      5-min Rain = 0
KLA1 141108Z 32004KT 04/04 A3014 RMK A01 T00410041  RH  100%=      5-min Rain = 0
KLA1 141109Z 30004KT 04/04 A3014 RMK A01 T00410041  RH  100%=      5-min Rain = 0
KLA1 141110Z 30003KT 04/04 A3014 RMK A01 T00410041  RH  100%=      5-min Rain = 0
KLA1 141111Z 30003KT 04/04 A3014 RMK A01 T00410041  RH  100%=      5-min Rain = 0
KLA1 141112Z 30002KT 04/04 A3014 RMK A01 T00410041  RH  100%=      5-min Rain = 0
KLA1 141113Z 30002KT 04/04 A3014 RMK A01 T00410041  RH  100%=      5-min Rain = 0
KLA1 141114Z 32003KT 04/04 A3014 RMK A01 T00410041  RH  100%=      5-min Rain = 0
KLA1 141115Z 33003KT 04/04 A3014 RMK A01 T00410041  RH  100%=      5-min Rain = 0
KLA1 141116Z 32003KT 04/04 A3014 RMK A01 T00410041  RH  100%=      5-min Rain = 0
KLA1 141117Z 32003KT 04/04 A3014 RMK A01 T00410041  RH  100%=      5-min Rain = 0
KLA1 141118Z 31003KT 04/04 A3014 RMK A01 T00410041  RH  100%=      5-min Rain = 0
KLA1 141119Z 34003KT 04/04 A3014 RMK A01 T00410041  RH  100%=      5-min Rain = 0
KLA1 141120Z 34003KT 04/04 A3014 RMK A01 T00410041  RH  100%=      5-min Rain = 0
KLA1 141121Z 31004KT 04/04 A3014 RMK A01 T00410041  RH  100%=      5-min Rain = 0
KLA1 141122Z 31003KT 04/04 A3014 RMK A01 T00410041  RH  100%=      5-min Rain = 0
KLA1 141123Z 30003KT 04/04 A3014 RMK A01 T00410041  RH  100%=      5-min Rain = 0
KLA1 141124Z 31005KT 04/04 A3014 RMK A01 T00410041  RH  100%=      5-min Rain = 0
KLA1 141125Z 32004KT 04/04 A3014 RMK A01 T00410041  RH  100%=      5-min Rain = 0
KLA1 141126Z 33004KT 04/04 A3014 RMK A01 T00410041  RH  100%=      5-min Rain = 0
KLA1 141127Z 33004KT 04/04 A3014 RMK A01 T00410041  RH  100%=      5-min Rain = 0
KLA1 141128Z 32003KT 04/04 A3015 RMK A01 T00410041  RH  100%=      5-min Rain = 0
KLA1 141129Z 31003KT 04/04 A3015 RMK A01 T00410041  RH  100%=      5-min Rain = 0
KLA1 141130Z 31005KT 04/04 A3015 RMK A01 T00410041  RH  100%=      5-min Rain = 0
KLA1 141131Z 35003KT 04/04 A3015 RMK A01 T00410041  RH  100%=      5-min Rain = 0
KLA1 141132Z 33003KT 04/04 A3015 RMK A01 T00410041  RH  100%=      5-min Rain = 0
KLA1 141133Z 32004KT 04/04 A3015 RMK A01 T00410041  RH  100%=      5-min Rain = 0
KLA1 141134Z 32004KT 04/04 A3015 RMK A01 T00410041  RH  100%=      5-min Rain = 0
KLA1 141135Z 33003KT 04/04 A3015 RMK A01 T00410041  RH  100%=      5-min Rain = 0
KLA1 141136Z 31004KT 04/04 A3015 RMK A01 T00410041  RH  100%=      5-min Rain = 0
KLA1 141137Z 31005KT 04/04 A3015 RMK A01 T00420042  RH  100%=      5-min Rain = 0
KLA1 141138Z 31005KT 04/04 A3015 RMK A01 T00420042  RH  100%=      5-min Rain = 0
KLA1 141139Z 32004KT 04/04 A3015 RMK A01 T00420041  RH  100%=      5-min Rain = 0
KLA1 141140Z 31003KT 04/04 A3015 RMK A01 T00420042  RH  100%=      5-min Rain = 0
KLA1 141141Z 34002KT 04/04 A3015 RMK A01 T00420042  RH  100%=      5-min Rain = 0
KLA1 141142Z 35003KT 04/04 A3015 RMK A01 T00420042  RH  100%=      5-min Rain = 0
KLA1 141143Z 34003KT 04/04 A3015 RMK A01 T00420042  RH  100%=      5-min Rain = 0
KLA1 141144Z 31004KT 04/04 A3015 RMK A01 T00420042  RH  100%=      5-min Rain = 0
KLA1 141145Z 31004KT 04/04 A3015 RMK A01 T00420042  RH  100%=      5-min Rain = 0
KLA1 141146Z 32004KT 04/04 A3015 RMK A01 T00420042  RH  100%=      5-min Rain = 0
KLA1 141147Z 31003KT 04/04 A3015 RMK A01 T00420042  RH  100%=      5-min Rain = 0
KLA1 141148Z 30004KT 04/04 A3015 RMK A01 T00420042  RH  100%=      5-min Rain = 0
KLA1 141149Z 31004KT 04/04 A3015 RMK A01 T00420042  RH  100%=      5-min Rain = 0
KLA1 141150Z 30005KT 04/04 A3015 RMK A01 T00420042  RH  100%=      5-min Rain = 0
KLA1 141151Z 30006KT 04/04 A3015 RMK A01 T00420042  RH  100%=      5-min Rain = 0
KLA1 141152Z 31005KT 04/04 A3015 RMK A01 T00420042  RH  100%=      5-min Rain = 0
KLA1 141153Z 30006KT 04/04 A3015 RMK A01 T00420042  RH  100%=      5-min Rain = 0
KLA1 141154Z 30005KT 04/04 A3015 RMK A01 T00420042  RH  100%=      5-min Rain = 0
KLA1 141155Z 31005KT 04/04 A3015 RMK A01 T00420042  RH  100%=      5-min Rain = 0
KLA1 141156Z 31005KT 04/04 A3015 RMK A01 T00420042  RH  100%=      5-min Rain = 0
KLA1 141157Z 31006KT 04/04 A3015 RMK A01 T00420042  RH  100%=      5-min Rain = 0
KLA1 141158Z 30004KT 04/04 A3015 RMK A01 T00420042  RH  100%=      5-min Rain = 0
KLA1 141159Z 30005KT 04/04 A3015 RMK A01 T00420042  RH  100%=      5-min Rain = 0
KLA1 141200Z 31006KT 04/04 A3016 RMK A01 T00420042  RH  100%=      5-min Rain = 0
KLA1 141201Z 31006KT 04/04 A3016 RMK A01 T00420042  RH  100%=      5-min Rain = 0
KLA1 141202Z 30004KT 04/04 A3016 RMK A01 T00420042  RH  100%=      5-min Rain = 0
KLA1 141203Z 31005KT 04/04 A3016 RMK A01 T00410041  RH  100%=      5-min Rain = 0
KLA1 141204Z 31004KT 04/04 A3016 RMK A01 T00410041  RH  100%=      5-min Rain = 0
KLA1 141205Z 31006KT 04/04 A3016 RMK A01 T00410041  RH  100%=      5-min Rain = 0
KLA1 141206Z 31005KT 04/04 A3016 RMK A01 T00410041  RH  100%=      5-min Rain = 0
KLA1 141207Z 31005KT 04/04 A3016 RMK A01 T00410041  RH  100%=      5-min Rain = 0
KLA1 141208Z 32005KT 04/04 A3016 RMK A01 T00410041  RH  100%=      5-min Rain = 0
KLA1 141209Z 31005KT 04/04 A3016 RMK A01 T00410041  RH  100%=      5-min Rain = 0
KLA1 141210Z 31005KT 04/04 A3016 RMK A01 T00410041  RH  100%=      5-min Rain = 0
KLA1 141211Z 33003KT 04/04 A3016 RMK A01 T00410041  RH  100%=      5-min Rain = 0
KLA1 141212Z 33003KT 04/04 A3016 RMK A01 T00410041  RH  100%=      5-min Rain = 0
KLA1 141213Z 35003KT 04/04 A3016 RMK A01 T00410041  RH  100%=      5-min Rain = 0
KLA1 141214Z 34002KT 04/04 A3016 RMK A01 T00410041  RH  100%=      5-min Rain = 0
KLA1 141215Z 32002KT 04/04 A3016 RMK A01 T00410041  RH  100%=      5-min Rain = 0
KLA1 141216Z 31003KT 04/04 A3016 RMK A01 T00410041  RH  100%=      5-min Rain = 0
KLA1 141217Z 32003KT 04/04 A3016 RMK A01 T00410041  RH  100%=      5-min Rain = 0
KLA1 141218Z 31003KT 04/04 A3016 RMK A01 T00400040  RH  100%=      5-min Rain = 0
KLA1 141219Z 31003KT 04/04 A3017 RMK A01 T00400040  RH  100%=      5-min Rain = 0
KLA1 141220Z 31003KT 04/04 A3017 RMK A01 T00400040  RH  100%=      5-min Rain = 0
KLA1 141221Z 32002KT 04/04 A3017 RMK A01 T00400040  RH  100%=      5-min Rain = 0
KLA1 141222Z 00003KT 04/04 A3017 RMK A01 T00400040  RH  100%=      5-min Rain = 0
KLA1 141223Z 35002KT 04/04 A3017 RMK A01 T00400040  RH  100%=      5-min Rain = 0
KLA1 141224Z 35001KT 04/04 A3017 RMK A01 T00400040  RH  100%=      5-min Rain = 0
KLA1 141225Z 35002KT 04/04 A3017 RMK A01 T00400040  RH  100%=      5-min Rain = 0
KLA1 141226Z 33002KT 04/04 A3017 RMK A01 T00400040  RH  100%=      5-min Rain = 0
KLA1 141227Z 34003KT 04/04 A3017 RMK A01 T00400040  RH  100%=      5-min Rain = 0
KLA1 141228Z 33003KT 04/04 A3017 RMK A01 T00400040  RH  100%=      5-min Rain = 0
KLA1 141229Z 32003KT 04/04 A3017 RMK A01 T00400040  RH  100%=      5-min Rain = 0
KLA1 141230Z 34003KT 04/04 A3017 RMK A01 T00410041  RH  100%=      5-min Rain = 0
KLA1 141231Z 34003KT 04/04 A3017 RMK A01 T00410041  RH  100%=      5-min Rain = 0
KLA1 141232Z 34002KT 04/04 A3017 RMK A01 T00410041  RH  100%=      5-min Rain = 0
KLA1 141233Z 33002KT 04/04 A3017 RMK A01 T00410041  RH  100%=      5-min Rain = 0
KLA1 141234Z 32002KT 04/04 A3017 RMK A01 T00410041  RH  100%=      5-min Rain = 0
KLA1 141235Z 34003KT 04/04 A3017 RMK A01 T00410041  RH  100%=      5-min Rain = 0
KLA1 141236Z 33003KT 04/04 A3017 RMK A01 T00410041  RH  100%=      5-min Rain = 0
KLA1 141237Z 34003KT 04/04 A3018 RMK A01 T00410041  RH  100%=      5-min Rain = 0
KLA1 141238Z 34004KT 04/04 A3018 RMK A01 T00410041  RH  100%=      5-min Rain = 0
KLA1 141239Z 35003KT 04/04 A3018 RMK A01 T00410041  RH  100%=      5-min Rain = 0
KLA1 141240Z 34002KT 04/04 A3018 RMK A01 T00410041  RH  100%=      5-min Rain = 0
KLA1 141241Z 33001KT 04/04 A3018 RMK A01 T00410041  RH  100%=      5-min Rain = 0
KLA1 141242Z 36000KT 04/04 A3018 RMK A01 T00410041  RH  100%=      5-min Rain = 0
KLA1 141243Z 35004KT 04/04 A3018 RMK A01 T00410041  RH  100%=      5-min Rain = 0
KLA1 141244Z 34004KT 04/04 A3018 RMK A01 T00410041  RH  100%=      5-min Rain = 0
KLA1 141245Z 35005KT 04/04 A3018 RMK A01 T00410041  RH  100%=      5-min Rain = 0
KLA1 141246Z 34006KT 04/04 A3018 RMK A01 T00410041  RH  100%=      5-min Rain = 0
KLA1 141247Z 34004KT 04/04 A3018 RMK A01 T00410041  RH  100%=      5-min Rain = 0
KLA1 141248Z 36004KT 04/04 A3018 RMK A01 T00410041  RH  100%=      5-min Rain = 0
KLA1 141249Z 35004KT 04/04 A3018 RMK A01 T00410041  RH  100%=      5-min Rain = 0
KLA1 141250Z 36004KT 04/04 A3018 RMK A01 T00410041  RH  100%=      5-min Rain = 0
KLA1 141251Z 36004KT 04/04 A3018 RMK A01 T00410041  RH  100%=      5-min Rain = 0
KLA1 141252Z 36005KT 04/04 A3019 RMK A01 T00410041  RH  100%=      5-min Rain = 0
KLA1 141253Z 35005KT 04/04 A3019 RMK A01 T00410041  RH  100%=      5-min Rain = 0
KLA1 141254Z 34004KT 04/04 A3019 RMK A01 T00410041  RH  100%=      5-min Rain = 0
KLA1 141255Z 32004KT 04/04 A3019 RMK A01 T00400040  RH  100%=      5-min Rain = 0
KLA1 141256Z 35004KT 04/04 A3019 RMK A01 T00400040  RH  100%=      5-min Rain = 0
KLA1 141257Z 35005KT 04/04 A3019 RMK A01 T00400040  RH  100%=      5-min Rain = 0
KLA1 141258Z 35005KT 04/04 A3019 RMK A01 T00400040  RH  100%=      5-min Rain = 0
KLA1 141259Z 35005KT 04/04 A3019 RMK A01 T00400040  RH  100%=      5-min Rain = 0
KLA1 141300Z 36005KT 04/04 A3019 RMK A01 T00400040  RH  100%=      5-min Rain = 0
KLA1 141301Z 34005KT 04/04 A3019 RMK A01 T00400040  RH  100%=      5-min Rain = 0
KLA1 141302Z 00004KT 04/04 A3019 RMK A01 T00400040  RH  100%=      5-min Rain = 0
KLA1 141303Z 36004KT 04/04 A3019 RMK A01 T00400040  RH  100%=      5-min Rain = 0
KLA1 141304Z 35005KT 04/04 A302 RMK A01 T00400040  RH  100%=      5-min Rain = 0
KLA1 141305Z 36006KT 04/04 A302 RMK A01 T00400040  RH  100%=      5-min Rain = 0
KLA1 141306Z 35006KT 04/04 A302 RMK A01 T00390039  RH  100%=      5-min Rain = 0
KLA1 141307Z 35005KT 04/04 A302 RMK A01 T00400040  RH  100%=      5-min Rain = 0
KLA1 141308Z 35006KT 04/04 A302 RMK A01 T00390039  RH  100%=      5-min Rain = 0
KLA1 141309Z 35005KT 04/04 A302 RMK A01 T00390039  RH  100%=      5-min Rain = 0
KLA1 141310Z 33005KT 04/04 A302 RMK A01 T00400040  RH  100%=      5-min Rain = 0
KLA1 141311Z 32005KT 04/04 A302 RMK A01 T00390039  RH  100%=      5-min Rain = 0
KLA1 141312Z 33003KT 04/04 A302 RMK A01 T00400039  RH  100%=      5-min Rain = 0
KLA1 141313Z 31005KT 04/04 A302 RMK A01 T00400040  RH  100%=      5-min Rain = 0
KLA1 141314Z 31005KT 04/04 A302 RMK A01 T00400040  RH  100%=      5-min Rain = 0
KLA1 141315Z 31004KT 04/04 A302 RMK A01 T00400040  RH  100%=      5-min Rain = 0
KLA1 141316Z 31005KT 04/04 A302 RMK A01 T00400040  RH  100%=      5-min Rain = 0
KLA1 141317Z 30005KT 04/04 A302 RMK A01 T00400040  RH  100%=      5-min Rain = 0
KLA1 141318Z 32004KT 04/04 A302 RMK A01 T00400040  RH  100%=      5-min Rain = 0
KLA1 141319Z 34002KT 04/04 A302 RMK A01 T00400040  RH  100%=      5-min Rain = 0
KLA1 141320Z 31003KT 04/04 A302 RMK A01 T00400040  RH  100%=      5-min Rain = 0
KLA1 141321Z 33003KT 04/04 A302 RMK A01 T00400040  RH  100%=      5-min Rain = 0
KLA1 141322Z 33002KT 04/04 A302 RMK A01 T00400040  RH  100%=      5-min Rain = 0
KLA1 141323Z 32003KT 04/04 A302 RMK A01 T00400040  RH  100%=      5-min Rain = 0
KLA1 141324Z 31003KT 04/04 A302 RMK A01 T00400040  RH  100%=      5-min Rain = 0
KLA1 141325Z 33002KT 04/04 A302 RMK A01 T00400040  RH  100%=      5-min Rain = 0
KLA1 141326Z 01002KT 04/04 A3021 RMK A01 T00400040  RH  100%=      5-min Rain = 0
KLA1 141327Z 33002KT 04/04 A3021 RMK A01 T00400040  RH  100%=      5-min Rain = 0
KLA1 141328Z 31000KT 04/04 A3021 RMK A01 T00400040  RH  100%=      5-min Rain = 0
KLA1 141329Z 30005KT 04/04 A3021 RMK A01 T00400040  RH  100%=      5-min Rain = 0
KLA1 141330Z 28002KT 04/04 A3021 RMK A01 T00400040  RH  100%=      5-min Rain = 0
KLA1 141331Z 31003KT 04/04 A3021 RMK A01 T00400040  RH  100%=      5-min Rain = 0
KLA1 141332Z 33003KT 04/04 A3021 RMK A01 T00400040  RH  100%=      5-min Rain = 0
KLA1 141333Z 31005KT 04/04 A3021 RMK A01 T00400040  RH  100%=      5-min Rain = 0
KLA1 141334Z 32006KT 04/04 A3021 RMK A01 T00400040  RH  100%=      5-min Rain = 0
KLA1 141335Z 32004KT 04/04 A3021 RMK A01 T00400040  RH  100%=      5-min Rain = 0
KLA1 141336Z 32003KT 04/04 A3021 RMK A01 T00400040  RH  100%=      5-min Rain = 0
KLA1 141337Z 32004KT 04/04 A3021 RMK A01 T00400040  RH  100%=      5-min Rain = 0
KLA1 141338Z 34005KT 04/04 A3021 RMK A01 T00400040  RH  100%=      5-min Rain = 0
KLA1 141339Z 33004KT 04/04 A3021 RMK A01 T00400040  RH  100%=      5-min Rain = 0
KLA1 141340Z 34005KT 04/04 A3021 RMK A01 T00400040  RH  100%=      5-min Rain = 0
KLA1 141341Z 33005KT 04/04 A3022 RMK A01 T00400040  RH  100%=      5-min Rain = 0
KLA1 141342Z 33005KT 04/04 A3022 RMK A01 T00400040  RH  100%=      5-min Rain = 0
KLA1 141343Z 33004KT 04/04 A3022 RMK A01 T00400040  RH  100%=      5-min Rain = 0
KLA1 141344Z 34005KT 04/04 A3022 RMK A01 T00400040  RH  100%=      5-min Rain = 0
KLA1 141345Z 35005KT 04/04 A3022 RMK A01 T00400040  RH  100%=      5-min Rain = 0
KLA1 141346Z 00005KT 04/04 A3022 RMK A01 T00400040  RH  100%=      5-min Rain = 0
KLA1 141347Z 01005KT 04/04 A3022 RMK A01 T00390039  RH  100%=      5-min Rain = 0
KLA1 141348Z 35004KT 04/04 A3022 RMK A01 T00390039  RH  100%=      5-min Rain = 0
KLA1 141349Z 33003KT 04/04 A3022 RMK A01 T00390039  RH  100%=      5-min Rain = 0
KLA1 141350Z 31004KT 04/04 A3022 RMK A01 T00400040  RH  100%=      5-min Rain = 0
KLA1 141351Z 33003KT 04/04 A3022 RMK A01 T00400040  RH  100%=      5-min Rain = 0
KLA1 141352Z 33003KT 04/04 A3022 RMK A01 T00400040  RH  100%=      5-min Rain = 0
KLA1 141353Z 31004KT 04/04 A3022 RMK A01 T00400040  RH  100%=      5-min Rain = 0
KLA1 141354Z 32004KT 04/04 A3022 RMK A01 T00400040  RH  100%=      5-min Rain = 0
KLA1 141355Z 32004KT 04/04 A3022 RMK A01 T00410040  RH  100%=      5-min Rain = 0
KLA1 141356Z 31005KT 04/04 A3022 RMK A01 T00410041  RH  100%=      5-min Rain = 0
KLA1 141357Z 31004KT 04/04 A3022 RMK A01 T00410041  RH  100%=      5-min Rain = 0
KLA1 141358Z 31003KT 04/04 A3023 RMK A01 T00410041  RH  100%=      5-min Rain = 0
KLA1 141359Z 32005KT 04/04 A3023 RMK A01 T00410041  RH  100%=      5-min Rain = 0
KLA1 141400Z 30005KT 04/04 A3023 RMK A01 T00410041  RH  100%=      5-min Rain = 0
KLA1 141401Z 32004KT 04/04 A3023 RMK A01 T00410041  RH  100%=      5-min Rain = 0
KLA1 141402Z 31004KT 04/04 A3023 RMK A01 T00410041  RH  100%=      5-min Rain = 0
KLA1 141403Z 34003KT 04/04 A3023 RMK A01 T00410041  RH  100%=      5-min Rain = 0
KLA1 141404Z 35003G8KT 04/04 A3023 RMK A01 T00420042  RH  100%=      5-min Rain = 0
KLA1 141405Z 34004KT 04/04 A3023 RMK A01 T00420042  RH  100%=      5-min Rain = 0
KLA1 141406Z 32004KT 04/04 A3023 RMK A01 T00420042  RH  100%=      5-min Rain = 0
KLA1 141407Z 32004KT 04/04 A3023 RMK A01 T00420042  RH  100%=      5-min Rain = 0
KLA1 141408Z 32003KT 04/04 A3024 RMK A01 T00420042  RH  100%=      5-min Rain = 0
KLA1 141409Z 35004KT 04/04 A3024 RMK A01 T00420042  RH  100%=      5-min Rain = 0
KLA1 141410Z 34004KT 04/04 A3024 RMK A01 T00420042  RH  100%=      5-min Rain = 0
KLA1 141411Z 33003KT 04/04 A3024 RMK A01 T00420042  RH  100%=      5-min Rain = 0
KLA1 141412Z 34003KT 04/04 A3024 RMK A01 T00420042  RH  100%=      5-min Rain = 0
KLA1 141413Z 34007KT 04/04 A3024 RMK A01 T00430043  RH  100%=      5-min Rain = 0
KLA1 141414Z 33004KT 04/04 A3024 RMK A01 T00430043  RH  100%=      5-min Rain = 0
KLA1 141415Z 35003KT 04/04 A3024 RMK A01 T00430043  RH  100%=      5-min Rain = 0
KLA1 141416Z 34004KT 04/04 A3024 RMK A01 T00430043  RH  100%=      5-min Rain = 0
KLA1 141417Z 34004KT 04/04 A3024 RMK A01 T00430043  RH  100%=      5-min Rain = 0
KLA1 141418Z 35004KT 04/04 A3024 RMK A01 T00440044  RH  100%=      5-min Rain = 0
KLA1 141419Z 34003KT 04/04 A3024 RMK A01 T00440044  RH  100%=      5-min Rain = 0
KLA1 141420Z 34004KT 04/04 A3025 RMK A01 T00440044  RH  100%=      5-min Rain = 0
KLA1 141421Z 31003KT 04/04 A3025 RMK A01 T00440044  RH  100%=      5-min Rain = 0
KLA1 141422Z 32003KT 04/04 A3025 RMK A01 T00440044  RH  099%=      5-min Rain = 0
KLA1 141423Z 32005KT 05/04 A3025 RMK A01 T00450044  RH  099%=      5-min Rain = 0
KLA1 141424Z 31005KT 05/04 A3025 RMK A01 T00450043  RH  099%=      5-min Rain = 0
KLA1 141425Z 30005KT 05/04 A3025 RMK A01 T00450043  RH  098%=      5-min Rain = 0
KLA1 141426Z 34004KT 05/04 A3025 RMK A01 T00450042  RH  098%=      5-min Rain = 0
KLA1 141427Z 35004KT 05/04 A3025 RMK A01 T00450042  RH  098%=      5-min Rain = 0
KLA1 141428Z 35004KT 05/04 A3025 RMK A01 T00450042  RH  098%=      5-min Rain = 0
KLA1 141429Z 32004KT 05/04 A3025 RMK A01 T00450042  RH  098%=      5-min Rain = 0
KLA1 141430Z 35003KT 05/04 A3025 RMK A01 T00450042  RH  097%=      5-min Rain = 0
KLA1 141431Z 34005KT 05/04 A3025 RMK A01 T00460041  RH  097%=      5-min Rain = 0
KLA1 141432Z 32003KT 05/04 A3025 RMK A01 T00460041  RH  097%=      5-min Rain = 0
KLA1 141433Z 32003KT 05/04 A3025 RMK A01 T00460041  RH  097%=      5-min Rain = 0
KLA1 141434Z 32002KT 05/04 A3025 RMK A01 T00460041  RH  096%=      5-min Rain = 0
KLA1 141435Z 32002KT 05/04 A3025 RMK A01 T00470041  RH  096%=      5-min Rain = 0
KLA1 141436Z 31004KT 05/04 A3025 RMK A01 T00470041  RH  096%=      5-min Rain = 0
KLA1 141437Z 31002KT 05/04 A3025 RMK A01 T00470041  RH  095%=      5-min Rain = 0
KLA1 141438Z 32003KT 05/04 A3026 RMK A01 T00480042  RH  095%=      5-min Rain = 0
KLA1 141439Z 33001KT 05/04 A3026 RMK A01 T00490042  RH  095%=      5-min Rain = 0
KLA1 141440Z 30003KT 05/04 A3026 RMK A01 T00500042  RH  095%=      5-min Rain = 0
KLA1 141441Z 30003KT 05/04 A3026 RMK A01 T00500042  RH  094%=      5-min Rain = 0
KLA1 141442Z 31005KT 05/04 A3026 RMK A01 T00510041  RH  094%=      5-min Rain = 0
KLA1 141443Z 31004KT 05/04 A3026 RMK A01 T00510040  RH  093%=      5-min Rain = 0
KLA1 141444Z 32004KT 05/04 A3026 RMK A01 T00510041  RH  093%=      5-min Rain = 0
KLA1 141445Z 30005KT 05/04 A3026 RMK A01 T00510040  RH  093%=      5-min Rain = 0
KLA1 141446Z 31006KT 05/04 A3026 RMK A01 T00510039  RH  092%=      5-min Rain = 0
KLA1 141447Z 30007KT 05/04 A3026 RMK A01 T00500038  RH  092%=      5-min Rain = 0
KLA1 141448Z 31005KT 05/04 A3026 RMK A01 T00500037  RH  092%=      5-min Rain = 0
KLA1 141449Z 30004KT 05/04 A3027 RMK A01 T00490037  RH  092%=      5-min Rain = 0
KLA1 141450Z 30004KT 05/04 A3027 RMK A01 T00490037  RH  092%=      5-min Rain = 0
KLA1 141451Z 31005KT 05/04 A3027 RMK A01 T00490037  RH  092%=      5-min Rain = 0
KLA1 141452Z 31004KT 05/04 A3027 RMK A01 T00500038  RH  092%=      5-min Rain = 0
KLA1 141453Z 30005KT 05/04 A3027 RMK A01 T00500038  RH  092%=      5-min Rain = 0
KLA1 141454Z 30006KT 05/04 A3027 RMK A01 T00500037  RH  091%=      5-min Rain = 0
KLA1 141455Z 32004KT 05/04 A3027 RMK A01 T00500037  RH  091%=      5-min Rain = 0
KLA1 141456Z 31006KT 05/04 A3027 RMK A01 T00500037  RH  091%=      5-min Rain = 0
KLA1 141457Z 30006KT 05/04 A3027 RMK A01 T00500036  RH  091%=      5-min Rain = 0
KLA1 141458Z 31007KT 05/04 A3027 RMK A01 T00500036  RH  091%=      5-min Rain = 0
KLA1 141459Z 33006KT 05/04 A3027 RMK A01 T00500036  RH  091%=      5-min Rain = 0
KLA1 141500Z 31005KT 05/04 A3027 RMK A01 T00500037  RH  091%=      5-min Rain = 0
KLA1 141501Z 32005KT 05/04 A3027 RMK A01 T00510037  RH  091%=      5-min Rain = 0
KLA1 141502Z 33005KT 05/04 A3027 RMK A01 T00520038  RH  091%=      5-min Rain = 0
KLA1 141503Z 33003KT 05/04 A3027 RMK A01 T00530038  RH  090%=      5-min Rain = 0
KLA1 141504Z 33004KT 06/04 A3027 RMK A01 T00550040  RH  090%=      5-min Rain = 0
KLA1 141505Z 32004KT 06/04 A3027 RMK A01 T00570039  RH  088%=      5-min Rain = 0
KLA1 141506Z 34003KT 06/04 A3027 RMK A01 T00570037  RH  087%=      5-min Rain = 0
KLA1 141507Z 33004KT 06/04 A3028 RMK A01 T00570036  RH  087%=      5-min Rain = 0
KLA1 141508Z 31004KT 06/04 A3028 RMK A01 T00570036  RH  086%=      5-min Rain = 0
KLA1 141509Z 31004KT 06/04 A3028 RMK A01 T00580037  RH  086%=      5-min Rain = 0
KLA1 141510Z 31005KT 06/04 A3028 RMK A01 T00590036  RH  085%=      5-min Rain = 0
KLA1 141511Z 31004KT 06/04 A3028 RMK A01 T00590035  RH  085%=      5-min Rain = 0
KLA1 141512Z 32004KT 06/04 A3028 RMK A01 T00610038  RH  085%=      5-min Rain = 0
KLA1 141513Z 34004KT 06/04 A3028 RMK A01 T00620038  RH  085%=      5-min Rain = 0
KLA1 141514Z 33004KT 06/04 A3028 RMK A01 T00640039  RH  084%=      5-min Rain = 0
KLA1 141515Z 32006KT 07/04 A3028 RMK A01 T00660038  RH  083%=      5-min Rain = 0
KLA1 141516Z 31006KT 07/04 A3028 RMK A01 T00660036  RH  081%=      5-min Rain = 0
KLA1 141517Z 31005KT 07/04 A3028 RMK A01 T00660036  RH  081%=      5-min Rain = 0
KLA1 141518Z 34006KT 07/04 A3028 RMK A01 T00670037  RH  081%=      5-min Rain = 0
KLA1 141519Z 35007KT 07/04 A3028 RMK A01 T00680036  RH  080%=      5-min Rain = 0
KLA1 141520Z 34004KT 07/04 A3028 RMK A01 T00690036  RH  080%=      5-min Rain = 0
KLA1 141521Z 35004KT 07/04 A3028 RMK A01 T00710039  RH  080%=      5-min Rain = 0
KLA1 141522Z 31005KT 07/04 A3028 RMK A01 T00730038  RH  079%=      5-min Rain = 0
KLA1 141523Z 31007KT 07/04 A3029 RMK A01 T00730036  RH  077%=      5-min Rain = 0
KLA1 141524Z 31008KT 07/04 A3029 RMK A01 T00730037  RH  078%=      5-min Rain = 0
KLA1 141525Z 31007KT 07/04 A3029 RMK A01 T00730036  RH  078%=      5-min Rain = 0
KLA1 141526Z 32005KT 07/04 A3029 RMK A01 T00740038  RH  078%=      5-min Rain = 0
KLA1 141527Z 31006KT 08/04 A3029 RMK A01 T00760038  RH  077%=      5-min Rain = 0
KLA1 141528Z 31006KT 08/04 A3029 RMK A01 T00780038  RH  076%=      5-min Rain = 0
KLA1 141529Z 30007KT 08/04 A3029 RMK A01 T00790038  RH  075%=      5-min Rain = 0
KLA1 141530Z 33008KT 08/04 A3029 RMK A01 T00800037  RH  075%=      5-min Rain = 0
KLA1 141531Z 31004KT 08/04 A3029 RMK A01 T00800038  RH  075%=      5-min Rain = 0
KLA1 141532Z 32004KT 08/04 A3029 RMK A01 T00820040  RH  075%=      5-min Rain = 0
KLA1 141533Z 31007KT 08/04 A3029 RMK A01 T00830038  RH  073%=      5-min Rain = 0
KLA1 141534Z 31005KT 08/04 A3029 RMK A01 T00840038  RH  073%=      5-min Rain = 0
KLA1 141535Z 32005KT 08/04 A3029 RMK A01 T00840038  RH  073%=      5-min Rain = 0
KLA1 141536Z 34004KT 08/04 A3029 RMK A01 T00840038  RH  073%=      5-min Rain = 0
KLA1 141537Z 35004KT 09/04 A3029 RMK A01 T00850038  RH  072%=      5-min Rain = 0
KLA1 141538Z 32006KT 09/04 A3029 RMK A01 T00860039  RH  072%=      5-min Rain = 0
KLA1 141539Z 34004KT 09/04 A3029 RMK A01 T00870039  RH  072%=      5-min Rain = 0
KLA1 141540Z 35006KT 09/04 A3029 RMK A01 T00880037  RH  071%=      5-min Rain = 0
KLA1 141541Z 35006KT 09/04 A3029 RMK A01 T00870036  RH  070%=      5-min Rain = 0
KLA1 141542Z 36006KT 09/04 A3029 RMK A01 T00880038  RH  071%=      5-min Rain = 0
KLA1 141543Z 33005KT 09/04 A3029 RMK A01 T00890038  RH  071%=      5-min Rain = 0
KLA1 141544Z 35008KT 09/04 A3029 RMK A01 T00900038  RH  070%=      5-min Rain = 0
KLA1 141545Z 34009KT 09/04 A303 RMK A01 T00910037  RH  069%=      5-min Rain = 0
KLA1 141546Z 34008KT 09/04 A303 RMK A01 T00900035  RH  068%=      5-min Rain = 0
KLA1 141547Z 35008KT 09/04 A303 RMK A01 T00900036  RH  069%=      5-min Rain = 0
KLA1 141548Z 00007KT 09/04 A303 RMK A01 T00910037  RH  069%=      5-min Rain = 0
KLA1 141549Z 34008KT 09/04 A303 RMK A01 T00920038  RH  069%=      5-min Rain = 0
KLA1 141550Z 35007KT 09/04 A303 RMK A01 T00930036  RH  068%=      5-min Rain = 0
KLA1 141551Z 02008KT 09/04 A303 RMK A01 T00920035  RH  068%=      5-min Rain = 0
KLA1 141552Z 35007KT 09/04 A303 RMK A01 T00910035  RH  068%=      5-min Rain = 0
KLA1 141553Z 36009KT 09/04 A303 RMK A01 T00910035  RH  068%=      5-min Rain = 0
KLA1 141554Z 35007KT 09/04 A303 RMK A01 T00910035  RH  068%=      5-min Rain = 0
KLA1 141555Z 35007KT 09/04 A303 RMK A01 T00930035  RH  067%=      5-min Rain = 0
KLA1 141556Z 34008KT 09/03 A303 RMK A01 T00940034  RH  067%=      5-min Rain = 0
KLA1 141557Z 35011KT 09/03 A303 RMK A01 T00940034  RH  066%=      5-min Rain = 0
KLA1 141558Z 33010KT 09/03 A303 RMK A01 T00930033  RH  066%=      5-min Rain = 0
KLA1 141559Z 34012KT 09/03 A303 RMK A01 T00930034  RH  067%=      5-min Rain = 0
KLA1 141600Z 35010G16KT 09/03 A303 RMK A01 T00940034  RH  066%=      5-min Rain = 0
KLA1 141601Z 00009KT 09/04 A303 RMK A01 T00940035  RH  066%=      5-min Rain = 0
KLA1 141602Z 35010KT 09/03 A303 RMK A01 T00940034  RH  066%=      5-min Rain = 0
KLA1 141603Z 33010KT 09/03 A303 RMK A01 T00940033  RH  066%=      5-min Rain = 0
KLA1 141604Z 34009KT 09/03 A303 RMK A01 T00940033  RH  066%=      5-min Rain = 0
KLA1 141605Z 02007KT 09/03 A303 RMK A01 T00940034  RH  066%=      5-min Rain = 0
KLA1 141606Z 00009KT 10/04 A303 RMK A01 T00960035  RH  066%=      5-min Rain = 0
KLA1 141607Z 01007KT 10/04 A303 RMK A01 T00980035  RH  065%=      5-min Rain = 0
KLA1 141608Z 00006KT 10/03 A303 RMK A01 T00980032  RH  063%=      5-min Rain = 0
KLA1 141609Z 35009KT 10/03 A3031 RMK A01 T00980033  RH  064%=      5-min Rain = 0
KLA1 141610Z 34006KT 10/03 A3031 RMK A01 T00990034  RH  064%=      5-min Rain = 0
KLA1 141611Z 35010KT 10/04 A3031 RMK A01 T01010036  RH  064%=      5-min Rain = 0
KLA1 141612Z 36010KT 10/03 A3031 RMK A01 T01020032  RH  062%=      5-min Rain = 0
KLA1 141613Z 00007KT 10/03 A3031 RMK A01 T01020032  RH  062%=      5-min Rain = 0
KLA1 141614Z 01009G16KT 10/03 A3031 RMK A01 T01030032  RH  061%=      5-min Rain = 0
KLA1 141615Z 02010G15KT 10/03 A3031 RMK A01 T01040030  RH  060%=      5-min Rain = 0
KLA1 141616Z 02011KT 10/03 A3031 RMK A01 T01030030  RH  060%=      5-min Rain = 0
KLA1 141617Z 01011KT 10/03 A3031 RMK A01 T01030030  RH  060%=      5-min Rain = 0
KLA1 141618Z 01010KT 10/03 A3031 RMK A01 T01030030  RH  061%=      5-min Rain = 0
KLA1 141619Z 01010KT 10/03 A3031 RMK A01 T01040030  RH  060%=      5-min Rain = 0
KLA1 141620Z 00008KT 10/03 A3031 RMK A01 T01040030  RH  060%=      5-min Rain = 0
KLA1 141621Z 36008KT 11/03 A3031 RMK A01 T01050030  RH  060%=      5-min Rain = 0
KLA1 141622Z 35007KT 11/03 A3031 RMK A01 T01050032  RH  060%=      5-min Rain = 0
KLA1 141623Z 36008KT 11/03 A3031 RMK A01 T01070031  RH  060%=      5-min Rain = 0
KLA1 141624Z 34011KT 11/03 A3031 RMK A01 T01080031  RH  059%=      5-min Rain = 0
KLA1 141625Z 35012KT 11/03 A3031 RMK A01 T01080030  RH  059%=      5-min Rain = 0
KLA1 141626Z 36008KT 11/03 A3031 RMK A01 T01080030  RH  059%=      5-min Rain = 0
KLA1 141627Z 34013KT 11/03 A3031 RMK A01 T01090032  RH  059%=      5-min Rain = 0
KLA1 141628Z 35012KT 11/03 A3031 RMK A01 T01090029  RH  058%=      5-min Rain = 0
KLA1 141629Z 36012KT 11/03 A3031 RMK A01 T01070028  RH  058%=      5-min Rain = 0
KLA1 141630Z 00011KT 11/03 A3031 RMK A01 T01060029  RH  059%=      5-min Rain = 0
KLA1 141631Z 36012KT 11/03 A3031 RMK A01 T01060028  RH  058%=      5-min Rain = 0
KLA1 141632Z 35009KT 11/03 A3031 RMK A01 T01050027  RH  059%=      5-min Rain = 0
KLA1 141633Z 01006KT 11/03 A3031 RMK A01 T01050030  RH  060%=      5-min Rain = 0
KLA1 141634Z 02007KT 11/03 A3031 RMK A01 T01080031  RH  059%=      5-min Rain = 0
KLA1 141635Z 03009KT 11/03 A3031 RMK A01 T01080030  RH  058%=      5-min Rain = 0
KLA1 141636Z 35012KT 11/03 A3032 RMK A01 T01090031  RH  058%=      5-min Rain = 0
KLA1 141637Z 35012KT 11/03 A3031 RMK A01 T01090030  RH  058%=      5-min Rain = 0
KLA1 141638Z 36010KT 11/03 A3032 RMK A01 T01090030  RH  058%=      5-min Rain = 0
KLA1 141639Z 01011KT 11/03 A3032 RMK A01 T01100030  RH  058%=      5-min Rain = 0
KLA1 141640Z 01009KT 11/03 A3032 RMK A01 T01090029  RH  058%=      5-min Rain = 0
KLA1 141641Z 02008KT 11/03 A3032 RMK A01 T01080030  RH  059%=      5-min Rain = 0
KLA1 141642Z 35010KT 11/03 A3031 RMK A01 T01100031  RH  058%=      5-min Rain = 0
KLA1 141643Z 36008KT 11/03 A3032 RMK A01 T01110030  RH  057%=      5-min Rain = 0
KLA1 141644Z 03009KT 11/03 A3032 RMK A01 T01120032  RH  058%=      5-min Rain = 0
KLA1 141645Z 02009KT 11/03 A3032 RMK A01 T01120029  RH  056%=      5-min Rain = 0
KLA1 141646Z 01007KT 11/03 A3032 RMK A01 T01100029  RH  057%=      5-min Rain = 0
KLA1 141647Z 34011KT 11/03 A3032 RMK A01 T01100029  RH  058%=      5-min Rain = 0
KLA1 141648Z 01010G15KT 11/03 A3032 RMK A01 T01110030  RH  058%=      5-min Rain = 0
KLA1 141649Z 01009G14KT 11/03 A3032 RMK A01 T01120031  RH  057%=      5-min Rain = 0
KLA1 141650Z 01013KT 11/03 A3032 RMK A01 T01130030  RH  057%=      5-min Rain = 0
KLA1 141651Z 01010G15KT 11/03 A3032 RMK A01 T01120029  RH  057%=      5-min Rain = 0
KLA1 141652Z 01010KT 11/03 A3032 RMK A01 T01110029  RH  057%=      5-min Rain = 0
KLA1 141653Z 03005KT 11/03 A3032 RMK A01 T01120031  RH  057%=      5-min Rain = 0
KLA1 141654Z 02004KT 11/03 A3032 RMK A01 T01140032  RH  057%=      5-min Rain = 0
KLA1 141655Z 03006KT 12/03 A3032 RMK A01 T01170034  RH  057%=      5-min Rain = 0
KLA1 141656Z 01006KT 12/03 A3032 RMK A01 T01180032  RH  056%=      5-min Rain = 0
KLA1 141657Z 36008KT 12/03 A3032 RMK A01 T01180031  RH  055%=      5-min Rain = 0
KLA1 141658Z 36010KT 12/03 A3032 RMK A01 T01170030  RH  055%=      5-min Rain = 0
KLA1 141659Z 36010KT 12/03 A3032 RMK A01 T01160029  RH  055%=      5-min Rain = 0
KLA1 141700Z 35010KT 11/03 A3032 RMK A01 T01140028  RH  056%=      5-min Rain = 0
KLA1 141701Z 34008G13KT 11/03 A3032 RMK A01 T01140030  RH  056%=      5-min Rain = 0
KLA1 141702Z 35009KT 12/03 A3032 RMK A01 T01160031  RH  056%=      5-min Rain = 0
KLA1 141703Z 34011KT 12/03 A3032 RMK A01 T01190030  RH  055%=      5-min Rain = 0
KLA1 141704Z 35006G11KT 12/03 A3033 RMK A01 T01190028  RH  054%=      5-min Rain = 0
KLA1 141705Z 01006KT 12/03 A3032 RMK A01 T01180028  RH  054%=      5-min Rain = 0
KLA1 141706Z 35011KT 12/03 A3032 RMK A01 T01200029  RH  054%=      5-min Rain = 0
KLA1 141707Z 34008KT 12/03 A3032 RMK A01 T01200029  RH  054%=      5-min Rain = 0
KLA1 141708Z 34008KT 12/03 A3032 RMK A01 T01200028  RH  053%=      5-min Rain = 0
KLA1 141709Z 35010KT 12/03 A3032 RMK A01 T01200027  RH  053%=      5-min Rain = 0
KLA1 141710Z 00010KT 12/03 A3033 RMK A01 T01200027  RH  053%=      5-min Rain = 0
KLA1 141711Z 01006KT 12/03 A3033 RMK A01 T01210028  RH  053%=      5-min Rain = 0
KLA1 141712Z 02009KT 12/03 A3032 RMK A01 T01230028  RH  052%=      5-min Rain = 0
KLA1 141713Z 01009KT 13/03 A3032 RMK A01 T01250027  RH  051%=      5-min Rain = 0
KLA1 141714Z 00009KT 13/03 A3033 RMK A01 T01250027  RH  052%=      5-min Rain = 0
KLA1 141715Z 01009KT 12/03 A3033 RMK A01 T01240028  RH  052%=      5-min Rain = 0
KLA1 141716Z 36008KT 12/03 A3033 RMK A01 T01240028  RH  052%=      5-min Rain = 0
KLA1 141717Z 36009KT 12/03 A3033 RMK A01 T01240027  RH  052%=      5-min Rain = 0
KLA1 141718Z 35007KT 12/03 A3033 RMK A01 T01230026  RH  051%=      5-min Rain = 0
KLA1 141719Z 00007KT 12/03 A3033 RMK A01 T01240027  RH  052%=      5-min Rain = 0
KLA1 141720Z 35010KT 13/03 A3033 RMK A01 T01250027  RH  051%=      5-min Rain = 0
KLA1 141721Z 00012KT 13/03 A3033 RMK A01 T01260025  RH  050%=      5-min Rain = 0
KLA1 141722Z 36007KT 12/02 A3033 RMK A01 T01240024  RH  050%=      5-min Rain = 0
KLA1 141723Z 34010KT 13/03 A3033 RMK A01 T01250026  RH  051%=      5-min Rain = 0
KLA1 141724Z 34010KT 13/02 A3032 RMK A01 T01250024  RH  050%=      5-min Rain = 0
KLA1 141725Z 00012KT 13/03 A3033 RMK A01 T01250025  RH  050%=      5-min Rain = 0
KLA1 141726Z 36008KT 13/02 A3033 RMK A01 T01260024  RH  050%=      5-min Rain = 0
KLA1 141727Z 00009KT 13/02 A3033 RMK A01 T01260024  RH  050%=      5-min Rain = 0
KLA1 141728Z 02010KT 13/03 A3033 RMK A01 T01260025  RH  050%=      5-min Rain = 0
KLA1 141729Z 02008G13KT 13/02 A3032 RMK A01 T01270024  RH  050%=      5-min Rain = 0
KLA1 141730Z 03009KT 13/02 A3033 RMK A01 T01270023  RH  049%=      5-min Rain = 0
KLA1 141731Z 02009KT 13/02 A3033 RMK A01 T01260022  RH  049%=      5-min Rain = 0
KLA1 141732Z 01007KT 13/02 A3033 RMK A01 T01250022  RH  049%=      5-min Rain = 0
KLA1 141733Z 35007KT 13/02 A3033 RMK A01 T01250022  RH  050%=      5-min Rain = 0
KLA1 141734Z 02010KT 13/02 A3033 RMK A01 T01260021  RH  049%=      5-min Rain = 0
KLA1 141735Z 00012KT 13/02 A3033 RMK A01 T01260021  RH  049%=      5-min Rain = 0
KLA1 141736Z 35013KT 13/02 A3033 RMK A01 T01260019  RH  048%=      5-min Rain = 0
KLA1 141737Z 35012KT 13/02 A3033 RMK A01 T01250019  RH  048%=      5-min Rain = 0
KLA1 141738Z 34008KT 13/02 A3033 RMK A01 T01250020  RH  049%=      5-min Rain = 0
KLA1 141739Z 01006KT 13/02 A3033 RMK A01 T01260023  RH  049%=      5-min Rain = 0
KLA1 141740Z 02009KT 13/02 A3033 RMK A01 T01300024  RH  049%=      5-min Rain = 0
KLA1 141741Z 01009KT 13/02 A3033 RMK A01 T01310022  RH  048%=      5-min Rain = 0
KLA1 141742Z 34010KT 13/02 A3033 RMK A01 T01300021  RH  047%=      5-min Rain = 0
KLA1 141743Z 00011KT 13/02 A3033 RMK A01 T01290020  RH  047%=      5-min Rain = 0
KLA1 141744Z 00010G15KT 13/02 A3033 RMK A01 T01290021  RH  048%=      5-min Rain = 0
KLA1 141745Z 01010KT 13/02 A3033 RMK A01 T01300023  RH  048%=      5-min Rain = 0
KLA1 141746Z 02010KT 13/02 A3033 RMK A01 T01320022  RH  047%=      5-min Rain = 0
KLA1 141747Z 02008KT 13/02 A3033 RMK A01 T01300018  RH  046%=      5-min Rain = 0
KLA1 141748Z 01008KT 13/02 A3033 RMK A01 T01280018  RH  047%=      5-min Rain = 0
KLA1 141749Z 05008G13KT 13/02 A3033 RMK A01 T01270019  RH  048%=      5-min Rain = 0
KLA1 141750Z 04005KT 13/02 A3032 RMK A01 T01280018  RH  047%=      5-min Rain = 0
KLA1 141751Z 00006KT 13/02 A3032 RMK A01 T01300021  RH  047%=      5-min Rain = 0
KLA1 141752Z 00012KT 13/02 A3032 RMK A01 T01320020  RH  047%=      5-min Rain = 0
KLA1 141753Z 36011G16KT 13/02 A3033 RMK A01 T01330019  RH  046%=      5-min Rain = 0
KLA1 141754Z 00010KT 13/02 A3032 RMK A01 T01320019  RH  046%=      5-min Rain = 0
KLA1 141755Z 01009KT 13/02 A3032 RMK A01 T01320018  RH  046%=      5-min Rain = 0
KLA1 141756Z 02010KT 13/02 A3032 RMK A01 T01320017  RH  045%=      5-min Rain = 0
KLA1 141757Z 02009KT 13/02 A3032 RMK A01 T01320017  RH  046%=      5-min Rain = 0
KLA1 141758Z 02011KT 13/02 A3032 RMK A01 T01330016  RH  045%=      5-min Rain = 0
KLA1 141759Z 02012KT 13/02 A3032 RMK A01 T01330016  RH  045%=      5-min Rain = 0
KLA1 141800Z 01011KT 13/02 A3032 RMK A01 T01320015  RH  045%=      5-min Rain = 0
KLA1 141801Z 01011KT 13/02 A3032 RMK A01 T01320016  RH  045%=      5-min Rain = 0
KLA1 141802Z 00010KT 13/02 A3032 RMK A01 T01320016  RH  045%=      5-min Rain = 0
KLA1 141803Z 01006KT 13/02 A3032 RMK A01 T01320016  RH  045%=      5-min Rain = 0
KLA1 141804Z 01005KT 13/02 A3032 RMK A01 T01320015  RH  045%=      5-min Rain = 0
KLA1 141805Z 01006G11KT 13/02 A3032 RMK A01 T01320017  RH  045%=      5-min Rain = 0
KLA1 141806Z 02008KT 13/02 A3032 RMK A01 T01340019  RH  046%=      5-min Rain = 0
KLA1 141807Z 01011G17KT 14/02 A3032 RMK A01 T01360019  RH  045%=      5-min Rain = 0
KLA1 141808Z 02009G15KT 14/02 A3032 RMK A01 T01370016  RH  044%=      5-min Rain = 0
KLA1 141809Z 02006KT 14/02 A3032 RMK A01 T01360018  RH  045%=      5-min Rain = 0
KLA1 141810Z 01008KT 14/02 A3032 RMK A01 T01380017  RH  044%=      5-min Rain = 0
KLA1 141811Z 01006KT 14/02 A3032 RMK A01 T01360015  RH  044%=      5-min Rain = 0
KLA1 141812Z 35008KT 14/02 A3032 RMK A01 T01360017  RH  044%=      5-min Rain = 0
KLA1 141813Z 01007KT 14/02 A3032 RMK A01 T01380017  RH  044%=      5-min Rain = 0
KLA1 141814Z 01008KT 14/02 A3032 RMK A01 T01380016  RH  044%=      5-min Rain = 0
KLA1 141815Z 34008KT 14/02 A3032 RMK A01 T01390015  RH  043%=      5-min Rain = 0
KLA1 141816Z 00008KT 14/02 A3032 RMK A01 T01390015  RH  043%=      5-min Rain = 0
KLA1 141817Z 02010G15KT 14/02 A3032 RMK A01 T01380015  RH  043%=      5-min Rain = 0
KLA1 141818Z 04009G14KT 14/02 A3032 RMK A01 T01370016  RH  044%=      5-min Rain = 0
KLA1 141819Z 03008KT 14/02 A3032 RMK A01 T01370015  RH  044%=      5-min Rain = 0
KLA1 141820Z 01007KT 13/01 A3032 RMK A01 T01340013  RH  044%=      5-min Rain = 0
KLA1 141821Z 35006KT 13/01 A3031 RMK A01 T01340014  RH  044%=      5-min Rain = 0
KLA1 141822Z 35006KT 13/01 A3032 RMK A01 T01340013  RH  044%=      5-min Rain = 0
KLA1 141823Z 35010KT 14/01 A3031 RMK A01 T01350014  RH  044%=      5-min Rain = 0
KLA1 141824Z 01008KT 14/01 A3032 RMK A01 T01350014  RH  044%=      5-min Rain = 0
KLA1 141825Z 36008KT 14/01 A3032 RMK A01 T01350014  RH  043%=      5-min Rain = 0
KLA1 141826Z 35006KT 14/01 A3031 RMK A01 T01350013  RH  044%=      5-min Rain = 0
KLA1 141827Z 35006KT 14/02 A3031 RMK A01 T01360016  RH  044%=      5-min Rain = 0
KLA1 141828Z 32008KT 14/02 A3031 RMK A01 T01390016  RH  043%=      5-min Rain = 0
KLA1 141829Z 36008KT 14/02 A3031 RMK A01 T01390015  RH  043%=      5-min Rain = 0
KLA1 141830Z 35010KT 14/02 A3031 RMK A01 T01400016  RH  043%=      5-min Rain = 0
KLA1 141831Z 00010KT 14/01 A3031 RMK A01 T01390014  RH  043%=      5-min Rain = 0
KLA1 141832Z 01008KT 14/02 A3031 RMK A01 T01380015  RH  043%=      5-min Rain = 0
KLA1 141833Z 03006KT 14/01 A3031 RMK A01 T01370014  RH  043%=      5-min Rain = 0
KLA1 141834Z 02005KT 14/01 A3031 RMK A01 T01370014  RH  043%=      5-min Rain = 0
KLA1 141835Z 02004KT 14/02 A3031 RMK A01 T01370015  RH  043%=      5-min Rain = 0
KLA1 141836Z 03003KT 14/02 A3031 RMK A01 T01370015  RH  044%=      5-min Rain = 0
KLA1 141837Z 00006G11KT 14/01 A3031 RMK A01 T01370014  RH  043%=      5-min Rain = 0
KLA1 141838Z 35010KT 14/02 A3031 RMK A01 T01370015  RH  043%=      5-min Rain = 0
KLA1 141839Z 34010KT 14/02 A3031 RMK A01 T01370016  RH  044%=      5-min Rain = 0
KLA1 141840Z 34011KT 14/02 A3031 RMK A01 T01380015  RH  043%=      5-min Rain = 0
KLA1 141841Z 34011G16KT 14/02 A3031 RMK A01 T01390019  RH  044%=      5-min Rain = 0
KLA1 141842Z 34010KT 14/02 A3031 RMK A01 T01420016  RH  042%=      5-min Rain = 0
KLA1 141843Z 34009KT 14/01 A3031 RMK A01 T01400014  RH  042%=      5-min Rain = 0
KLA1 141844Z 34007KT 14/02 A3031 RMK A01 T01390015  RH  043%=      5-min Rain = 0
KLA1 141845Z 36006KT 14/01 A3031 RMK A01 T01370013  RH  043%=      5-min Rain = 0
KLA1 141846Z 03006G11KT 14/02 A3031 RMK A01 T01380016  RH  043%=      5-min Rain = 0
KLA1 141847Z 03009KT 14/02 A3031 RMK A01 T01390015  RH  043%=      5-min Rain = 0
KLA1 141848Z 04007KT 14/02 A3031 RMK A01 T01390015  RH  043%=      5-min Rain = 0
KLA1 141849Z 05005KT 14/02 A3031 RMK A01 T01390016  RH  043%=      5-min Rain = 0
KLA1 141850Z 03004KT 14/02 A3031 RMK A01 T01400016  RH  043%=      5-min Rain = 0
KLA1 141851Z 36005KT 14/02 A3031 RMK A01 T01410017  RH  043%=      5-min Rain = 0
KLA1 141852Z 34009KT 14/02 A3031 RMK A01 T01430018  RH  043%=      5-min Rain = 0
KLA1 141853Z 33008KT 14/02 A3031 RMK A01 T01440016  RH  042%=      5-min Rain = 0
KLA1 141854Z 34006KT 14/02 A3031 RMK A01 T01440017  RH  042%=      5-min Rain = 0
KLA1 141855Z 35008KT 15/02 A3031 RMK A01 T01450018  RH  042%=      5-min Rain = 0
KLA1 141856Z 33007KT 15/02 A3031 RMK A01 T01450015  RH  041%=      5-min Rain = 0
KLA1 141857Z 34010KT 15/02 A3031 RMK A01 T01450018  RH  042%=      5-min Rain = 0
KLA1 141858Z 35008KT 15/02 A3031 RMK A01 T01470017  RH  041%=      5-min Rain = 0
KLA1 141859Z 32010KT 15/02 A3031 RMK A01 T01470017  RH  041%=      5-min Rain = 0
KLA1 141900Z 32010KT 15/02 A3031 RMK A01 T01460017  RH  042%=      5-min Rain = 0
KLA1 141901Z 33009KT 15/02 A3031 RMK A01 T01460018  RH  042%=      5-min Rain = 0
KLA1 141902Z 35008KT 15/02 A3031 RMK A01 T01470017  RH  041%=      5-min Rain = 0
KLA1 141903Z 01009KT 15/02 A3031 RMK A01 T01470015  RH  041%=      5-min Rain = 0
KLA1 141904Z 35011KT 15/02 A303 RMK A01 T01450015  RH  041%=      5-min Rain = 0
KLA1 141905Z 35008KT 14/01 A303 RMK A01 T01440014  RH  041%=      5-min Rain = 0
KLA1 141906Z 34008KT 14/02 A303 RMK A01 T01440017  RH  042%=      5-min Rain = 0
KLA1 141907Z 35009KT 15/02 A303 RMK A01 T01480018  RH  041%=      5-min Rain = 0
KLA1 141908Z 35011G16KT 15/02 A303 RMK A01 T01500016  RH  040%=      5-min Rain = 0
KLA1 141909Z 35012G18KT 15/01 A303 RMK A01 T01490014  RH  040%=      5-min Rain = 0
KLA1 141910Z 00010KT 15/02 A3031 RMK A01 T01480015  RH  041%=      5-min Rain = 0
KLA1 141911Z 35008KT 15/01 A303 RMK A01 T01470012  RH  040%=      5-min Rain = 0
KLA1 141912Z 01008KT 15/01 A303 RMK A01 T01460014  RH  041%=      5-min Rain = 0
KLA1 141913Z 01010KT 15/01 A303 RMK A01 T01460013  RH  040%=      5-min Rain = 0
KLA1 141914Z 00007KT 15/01 A303 RMK A01 T01450011  RH  040%=      5-min Rain = 0
KLA1 141915Z 35003KT 14/01 A303 RMK A01 T01420008  RH  040%=      5-min Rain = 0
KLA1 141916Z 01003KT 14/01 A303 RMK A01 T01390008  RH  041%=      5-min Rain = 0
KLA1 141917Z 01006KT 14/01 A303 RMK A01 T01400012  RH  042%=      5-min Rain = 0
KLA1 141918Z 35007KT 14/02 A303 RMK A01 T01440016  RH  042%=      5-min Rain = 0
KLA1 141919Z 32010KT 15/02 A303 RMK A01 T01480016  RH  041%=      5-min Rain = 0
KLA1 141920Z 33006KT 15/01 A303 RMK A01 T01470012  RH  040%=      5-min Rain = 0
KLA1 141921Z 32007KT 15/01 A303 RMK A01 T01450014  RH  041%=      5-min Rain = 0
KLA1 141922Z 36010G15KT 15/02 A303 RMK A01 T01470017  RH  041%=      5-min Rain = 0
KLA1 141923Z 35011KT 15/01 A303 RMK A01 T01490014  RH  040%=      5-min Rain = 0
KLA1 141924Z 01012KT 15/01 A303 RMK A01 T01460011  RH  040%=      5-min Rain = 0
KLA1 141925Z 00010KT 15/01 A303 RMK A01 T01460012  RH  040%=      5-min Rain = 0
KLA1 141926Z 36009KT 15/01 A303 RMK A01 T01450011  RH  040%=      5-min Rain = 0
KLA1 141927Z 00008KT 15/01 A303 RMK A01 T01450012  RH  040%=      5-min Rain = 0
KLA1 141928Z 01008KT 15/01 A303 RMK A01 T01450012  RH  040%=      5-min Rain = 0
KLA1 141929Z 01008KT 15/01 A3029 RMK A01 T01460010  RH  040%=      5-min Rain = 0
KLA1 141930Z 01008KT 15/01 A3029 RMK A01 T01450012  RH  040%=      5-min Rain = 0
KLA1 141931Z 03009KT 15/01 A3029 RMK A01 T01470013  RH  040%=      5-min Rain = 0
KLA1 141932Z 34006KT 15/01 A3029 RMK A01 T01490013  RH  040%=      5-min Rain = 0
KLA1 141933Z 32006G11KT 15/01 A3029 RMK A01 T01500013  RH  039%=      5-min Rain = 0
KLA1 141934Z 34008KT 15/01 A3029 RMK A01 T01510013  RH  039%=      5-min Rain = 0
KLA1 141935Z 34008KT 15/01 A3029 RMK A01 T01510013  RH  039%=      5-min Rain = 0
KLA1 141936Z 34009KT 15/01 A3029 RMK A01 T01520014  RH  039%=      5-min Rain = 0
KLA1 141937Z 35007KT 15/01 A3029 RMK A01 T01530013  RH  039%=      5-min Rain = 0
KLA1 141938Z 34007KT 15/01 A3029 RMK A01 T01530013  RH  039%=      5-min Rain = 0
KLA1 141939Z 33005KT 15/01 A3029 RMK A01 T01530013  RH  039%=      5-min Rain = 0
KLA1 141940Z 36009G14KT 15/01 A3029 RMK A01 T01530014  RH  039%=      5-min Rain = 0
KLA1 141941Z 01010KT 15/01 A3029 RMK A01 T01530013  RH  039%=      5-min Rain = 0
KLA1 141942Z 04009KT 15/01 A3029 RMK A01 T01520013  RH  039%=      5-min Rain = 0
KLA1 141943Z 03009KT 15/01 A3029 RMK A01 T01530012  RH  038%=      5-min Rain = 0
KLA1 141944Z 02007KT 15/01 A3029 RMK A01 T01510011  RH  039%=      5-min Rain = 0
KLA1 141945Z 01009KT 15/01 A3029 RMK A01 T01510013  RH  039%=      5-min Rain = 0
KLA1 141946Z 35008KT 15/01 A3029 RMK A01 T01520013  RH  039%=      5-min Rain = 0
KLA1 141947Z 36007KT 15/01 A3029 RMK A01 T01530013  RH  039%=      5-min Rain = 0
KLA1 141948Z 02010KT 15/01 A3029 RMK A01 T01530012  RH  038%=      5-min Rain = 0
KLA1 141949Z 02011KT 15/01 A3029 RMK A01 T01520011  RH  038%=      5-min Rain = 0
KLA1 141950Z 03008KT 15/01 A3029 RMK A01 T01500012  RH  039%=      5-min Rain = 0
KLA1 141951Z 03008KT 15/01 A3029 RMK A01 T01510012  RH  039%=      5-min Rain = 0
KLA1 141952Z 03005KT 15/01 A3029 RMK A01 T01500010  RH  039%=      5-min Rain = 0
KLA1 141953Z 00006KT 15/01 A3029 RMK A01 T01500014  RH  040%=      5-min Rain = 0
KLA1 141954Z 01010G17KT 15/01 A3029 RMK A01 T01530014  RH  039%=      5-min Rain = 0
KLA1 141955Z 00012KT 15/01 A3029 RMK A01 T01540014  RH  039%=      5-min Rain = 0
KLA1 141956Z 01009KT 15/01 A3029 RMK A01 T01530013  RH  039%=      5-min Rain = 0
KLA1 141957Z 02008KT 15/01 A3029 RMK A01 T01530014  RH  039%=      5-min Rain = 0
KLA1 141958Z 04008KT 15/01 A3029 RMK A01 T01530013  RH  039%=      5-min Rain = 0
KLA1 141959Z 02007KT 15/01 A3029 RMK A01 T01520013  RH  039%=      5-min Rain = 0
KLA1 142000Z 01005KT 15/01 A3029 RMK A01 T01510012  RH  039%=      5-min Rain = 0
KLA1 142001Z 00009G17KT 15/02 A3029 RMK A01 T01520015  RH  040%=      5-min Rain = 0
KLA1 142002Z 01011KT 15/01 A3029 RMK A01 T01530013  RH  039%=      5-min Rain = 0
KLA1 142003Z 01013KT 15/01 A3029 RMK A01 T01530013  RH  039%=      5-min Rain = 0
KLA1 142004Z 01012KT 15/01 A3029 RMK A01 T01520011  RH  038%=      5-min Rain = 0
KLA1 142005Z 03010KT 15/01 A3029 RMK A01 T01500012  RH  039%=      5-min Rain = 0
KLA1 142006Z 01006KT 15/01 A3029 RMK A01 T01510013  RH  039%=      5-min Rain = 0
KLA1 142007Z 01007KT 15/01 A3029 RMK A01 T01510012  RH  039%=      5-min Rain = 0
KLA1 142008Z 35007KT 15/01 A3029 RMK A01 T01510011  RH  039%=      5-min Rain = 0
KLA1 142009Z 00008KT 15/01 A3029 RMK A01 T01510012  RH  039%=      5-min Rain = 0
KLA1 142010Z 00009KT 15/01 A3029 RMK A01 T01520011  RH  038%=      5-min Rain = 0
KLA1 142011Z 35008KT 15/01 A3029 RMK A01 T01520011  RH  038%=      5-min Rain = 0
KLA1 142012Z 35008KT 15/01 A3028 RMK A01 T01520010  RH  038%=      5-min Rain = 0
KLA1 142013Z 36007KT 15/01 A3028 RMK A01 T01520008  RH  038%=      5-min Rain = 0
KLA1 142014Z 01007KT 15/01 A3029 RMK A01 T01520012  RH  039%=      5-min Rain = 0
KLA1 142015Z 00008KT 15/01 A3029 RMK A01 T01530012  RH  038%=      5-min Rain = 0
KLA1 142016Z 35007KT 15/01 A3028 RMK A01 T01520011  RH  038%=      5-min Rain = 0
KLA1 142017Z 35004KT 15/01 A3028 RMK A01 T01510011  RH  038%=      5-min Rain = 0
KLA1 142018Z 35006KT 15/01 A3028 RMK A01 T01510013  RH  039%=      5-min Rain = 0
KLA1 142019Z 36009KT 15/01 A3028 RMK A01 T01530013  RH  039%=      5-min Rain = 0
KLA1 142020Z 36007G12KT 15/01 A3028 RMK A01 T01540012  RH  038%=      5-min Rain = 0
KLA1 142021Z 36009KT 15/01 A3028 RMK A01 T01540012  RH  038%=      5-min Rain = 0
KLA1 142022Z 01009KT 16/01 A3028 RMK A01 T01550014  RH  038%=      5-min Rain = 0
KLA1 142023Z 02006KT 16/01 A3028 RMK A01 T01570014  RH  038%=      5-min Rain = 0
KLA1 142024Z 35007KT 16/01 A3028 RMK A01 T01570012  RH  037%=      5-min Rain = 0
KLA1 142025Z 00006KT 16/01 A3028 RMK A01 T01570012  RH  037%=      5-min Rain = 0
KLA1 142026Z 00010KT 16/01 A3028 RMK A01 T01560011  RH  037%=      5-min Rain = 0
KLA1 142027Z 01009KT 15/01 A3028 RMK A01 T01530008  RH  037%=      5-min Rain = 0
KLA1 142028Z 00008KT 15/01 A3028 RMK A01 T01520011  RH  038%=      5-min Rain = 0
KLA1 142029Z 03009KT 15/01 A3028 RMK A01 T01530010  RH  038%=      5-min Rain = 0
KLA1 142030Z 03008KT 15/01 A3028 RMK A01 T01540009  RH  037%=      5-min Rain = 0
KLA1 142031Z 00007KT 15/01 A3028 RMK A01 T01530008  RH  037%=      5-min Rain = 0
KLA1 142032Z 01005KT 15/01 A3028 RMK A01 T01520008  RH  037%=      5-min Rain = 0
KLA1 142033Z 02005KT 15/01 A3028 RMK A01 T01530008  RH  037%=      5-min Rain = 0
KLA1 142034Z 04004KT 15/01 A3028 RMK A01 T01530008  RH  037%=      5-min Rain = 0
KLA1 142035Z 01005KT 15/01 A3028 RMK A01 T01540010  RH  038%=      5-min Rain = 0
KLA1 142036Z 03010KT 16/01 A3028 RMK A01 T01560009  RH  037%=      5-min Rain = 0
KLA1 142037Z 02012KT 16/01 A3029 RMK A01 T01560009  RH  037%=      5-min Rain = 0
KLA1 142038Z 01010KT 16/01 A3029 RMK A01 T01560007  RH  036%=      5-min Rain = 0
KLA1 142039Z 35007KT 16/01 A3028 RMK A01 T01550007  RH  037%=      5-min Rain = 0
KLA1 142040Z 35008KT 16/01 A3028 RMK A01 T01550008  RH  037%=      5-min Rain = 0
KLA1 142041Z 36008KT 16/01 A3028 RMK A01 T01550007  RH  037%=      5-min Rain = 0
KLA1 142042Z 00006KT 15/01 A3028 RMK A01 T01540006  RH  036%=      5-min Rain = 0
KLA1 142043Z 36009KT 15/01 A3029 RMK A01 T01530007  RH  037%=      5-min Rain = 0
KLA1 142044Z 01010KT 15/01 A3029 RMK A01 T01530006  RH  037%=      5-min Rain = 0
KLA1 142045Z 01010KT 15/01 A3029 RMK A01 T01530006  RH  037%=      5-min Rain = 0
KLA1 142046Z 35009KT 15/01 A3029 RMK A01 T01520005  RH  037%=      5-min Rain = 0
KLA1 142047Z 34010KT 15/01 A3029 RMK A01 T01520007  RH  037%=      5-min Rain = 0
KLA1 142048Z 33009KT 15/01 A3029 RMK A01 T01540008  RH  037%=      5-min Rain = 0
KLA1 142049Z 36011KT 16/01 A3029 RMK A01 T01550008  RH  037%=      5-min Rain = 0
KLA1 142050Z 01013KT 16/01 A3029 RMK A01 T01560007  RH  036%=      5-min Rain = 0
KLA1 142051Z 02010KT 16/01 A3029 RMK A01 T01550007  RH  037%=      5-min Rain = 0
KLA1 142052Z 01010KT 15/01 A3029 RMK A01 T01530005  RH  037%=      5-min Rain = 0
KLA1 142053Z 01009KT 15/01 A3029 RMK A01 T01520007  RH  037%=      5-min Rain = 0
KLA1 142054Z 02009KT 15/01 A3029 RMK A01 T01540007  RH  037%=      5-min Rain = 0
KLA1 142055Z 34005KT 15/01 A3029 RMK A01 T01530005  RH  036%=      5-min Rain = 0
KLA1 142056Z 35007KT 15/01 A3029 RMK A01 T01530007  RH  037%=      5-min Rain = 0
KLA1 142057Z 34009KT 15/01 A3029 RMK A01 T01540007  RH  037%=      5-min Rain = 0
KLA1 142058Z 01009G14KT 16/01 A3029 RMK A01 T01550006  RH  036%=      5-min Rain = 0
KLA1 142059Z 01008KT 16/01 A3029 RMK A01 T01560005  RH  036%=      5-min Rain = 0
KLA1 142100Z 36007KT 16/01 A3029 RMK A01 T01550005  RH  036%=      5-min Rain = 0
KLA1 142101Z 35009KT 16/00 A3029 RMK A01 T01550004  RH  036%=      5-min Rain = 0
KLA1 142102Z 35011KT 16/00 A3029 RMK A01 T01560004  RH  036%=      5-min Rain = 0
KLA1 142103Z 35012KT 16/00 A3029 RMK A01 T01560002  RH  035%=      5-min Rain = 0
KLA1 142104Z 33013KT 15/00 A3029 RMK A01 T01540001  RH  035%=      5-min Rain = 0
KLA1 142105Z 01010G17KT 15/00 A3029 RMK A01 T01530002  RH  036%=      5-min Rain = 0
KLA1 142106Z 02008KT 15/00 A3029 RMK A01 T01530003  RH  036%=      5-min Rain = 0
KLA1 142107Z 02009KT 15/00 A3029 RMK A01 T01540004  RH  036%=      5-min Rain = 0
KLA1 142108Z 35005KT 16/01 A3029 RMK A01 T01560005  RH  036%=      5-min Rain = 0
KLA1 142109Z 01008G14KT 16/00 A3029 RMK A01 T01560004  RH  036%=      5-min Rain = 0
KLA1 142110Z 35013KT 16/00 A3029 RMK A01 T01570002  RH  035%=      5-min Rain = 0
KLA1 142111Z 34011KT 16/00 A3029 RMK A01 T01550001  RH  035%=      5-min Rain = 0
KLA1 142112Z 01009KT 15/00 A3029 RMK A01 T01540002  RH  035%=      5-min Rain = 0
KLA1 142113Z 02009KT 15/00 A3029 RMK A01 T01540001  RH  035%=      5-min Rain = 0
KLA1 142114Z 01009KT 15/00 A3029 RMK A01 T015300-0  RH  035%=      5-min Rain = 0
KLA1 142115Z 01008KT 15/00 A3029 RMK A01 T015200-0  RH  035%=      5-min Rain = 0
KLA1 142116Z 36008G13KT 15/00 A3029 RMK A01 T01520000  RH  035%=      5-min Rain = 0
KLA1 142117Z 01008KT 15/00 A3029 RMK A01 T01530001  RH  035%=      5-min Rain = 0
KLA1 142118Z 01010KT 15/00 A3029 RMK A01 T01540003  RH  036%=      5-min Rain = 0
KLA1 142119Z 01010KT 16/00 A3029 RMK A01 T01560003  RH  035%=      5-min Rain = 0
KLA1 142120Z 02009KT 16/00 A303 RMK A01 T01560001  RH  035%=      5-min Rain = 0
KLA1 142121Z 02007KT 16/M00 A3029 RMK A01 T01551001  RH  034%=      5-min Rain = 0
KLA1 142122Z 02005G10KT 15/00 A3029 RMK A01 T015300-0  RH  035%=      5-min Rain = 0
KLA1 142123Z 34005KT 15/00 A3029 RMK A01 T01530001  RH  035%=      5-min Rain = 0
KLA1 142124Z 36009G16KT 16/00 A3029 RMK A01 T01550003  RH  035%=      5-min Rain = 0
KLA1 142125Z 01013KT 16/00 A3029 RMK A01 T01560001  RH  035%=      5-min Rain = 0
KLA1 142126Z 01013KT 16/00 A3029 RMK A01 T01560002  RH  035%=      5-min Rain = 0
KLA1 142127Z 01010KT 15/00 A303 RMK A01 T01540001  RH  035%=      5-min Rain = 0
KLA1 142128Z 02009KT 15/00 A303 RMK A01 T01530000  RH  035%=      5-min Rain = 0
KLA1 142129Z 02009KT 15/00 A303 RMK A01 T01520001  RH  035%=      5-min Rain = 0
KLA1 142130Z 01007KT 15/00 A3029 RMK A01 T01520000  RH  035%=      5-min Rain = 0
KLA1 142131Z 02008KT 15/00 A3029 RMK A01 T01520001  RH  035%=      5-min Rain = 0
KLA1 142132Z 04006KT 15/00 A3029 RMK A01 T01530002  RH  036%=      5-min Rain = 0
KLA1 142133Z 03007KT 15/00 A3029 RMK A01 T01540001  RH  035%=      5-min Rain = 0
KLA1 142134Z 01005KT 16/00 A3029 RMK A01 T01550003  RH  035%=      5-min Rain = 0
KLA1 142135Z 01004G9KT 16/01 A3029 RMK A01 T01560005  RH  036%=      5-min Rain = 0
KLA1 142136Z 02010KT 16/01 A3029 RMK A01 T01590005  RH  035%=      5-min Rain = 0
KLA1 142137Z 01009KT 16/00 A3029 RMK A01 T01590003  RH  035%=      5-min Rain = 0
KLA1 142138Z 00007KT 16/00 A3029 RMK A01 T01580002  RH  035%=      5-min Rain = 0
KLA1 142139Z 36009KT 16/00 A3029 RMK A01 T01560000  RH  035%=      5-min Rain = 0
KLA1 142140Z 00011KT 16/00 A3029 RMK A01 T01560000  RH  035%=      5-min Rain = 0
KLA1 142141Z 02010KT 16/M00 A3029 RMK A01 T01551002  RH  034%=      5-min Rain = 0
KLA1 142142Z 01008KT 16/M00 A3029 RMK A01 T01551001  RH  034%=      5-min Rain = 0
KLA1 142143Z 36009KT 16/M00 A3029 RMK A01 T01561001  RH  034%=      5-min Rain = 0
KLA1 142144Z 35010KT 16/M00 A3029 RMK A01 T01571003  RH  034%=      5-min Rain = 0
KLA1 142145Z 00006KT 16/M00 A3029 RMK A01 T01561004  RH  034%=      5-min Rain = 0
KLA1 142146Z 04005KT 16/M00 A3029 RMK A01 T01551003  RH  034%=      5-min Rain = 0
KLA1 142147Z 04005KT 16/M00 A3029 RMK A01 T01561003  RH  034%=      5-min Rain = 0
KLA1 142148Z 02005KT 16/M00 A303 RMK A01 T01571001  RH  034%=      5-min Rain = 0
KLA1 142149Z 02008KT 16/M00 A3029 RMK A01 T01591003  RH  033%=      5-min Rain = 0
KLA1 142150Z 03007KT 16/M01 A3029 RMK A01 T01581005  RH  033%=      5-min Rain = 0
KLA1 142151Z 01009KT 16/M01 A3029 RMK A01 T01571006  RH  033%=      5-min Rain = 0
KLA1 142152Z 03008KT 16/M01 A3029 RMK A01 T01561005  RH  033%=      5-min Rain = 0
KLA1 142153Z 01007KT 16/M01 A3029 RMK A01 T01561006  RH  033%=      5-min Rain = 0
KLA1 142154Z 02006KT 16/M01 A3029 RMK A01 T01561005  RH  033%=      5-min Rain = 0
KLA1 142155Z 02005KT 16/M01 A3029 RMK A01 T01571005  RH  033%=      5-min Rain = 0
KLA1 142156Z 00003KT 16/M01 A3029 RMK A01 T01581007  RH  032%=      5-min Rain = 0
KLA1 142157Z 34003KT 16/M01 A3029 RMK A01 T01581008  RH  032%=      5-min Rain = 0
KLA1 142158Z 35006KT 16/M00 A3029 RMK A01 T01591004  RH  033%=      5-min Rain = 0
KLA1 142159Z 35006KT 16/M01 A3029 RMK A01 T01601005  RH  032%=      5-min Rain = 0
KLA1 142200Z 35009KT 16/M01 A3029 RMK A01 T01611006  RH  032%=      5-min Rain = 0
KLA1 142201Z 34008KT 16/M01 A3029 RMK A01 T01601009  RH  032%=      5-min Rain = 0
KLA1 142202Z 02006KT 16/M01 A3029 RMK A01 T01591008  RH  032%=      5-min Rain = 0
KLA1 142203Z 04005KT 16/M01 A3029 RMK A01 T01581009  RH  032%=      5-min Rain = 0
KLA1 142204Z 02006KT 16/M01 A303 RMK A01 T01581009  RH  032%=      5-min Rain = 0
KLA1 142205Z 04006KT 16/M01 A3029 RMK A01 T01581008  RH  032%=      5-min Rain = 0
KLA1 142206Z 01007KT 16/M01 A3029 RMK A01 T01591010  RH  032%=      5-min Rain = 0
KLA1 142207Z 01009G14KT 16/M01 A303 RMK A01 T01581009  RH  032%=      5-min Rain = 0
KLA1 142208Z 01011KT 16/M01 A303 RMK A01 T01571010  RH  032%=      5-min Rain = 0
KLA1 142209Z 01010KT 16/M01 A303 RMK A01 T01561011  RH  032%=      5-min Rain = 0
KLA1 142210Z 01010KT 16/M01 A303 RMK A01 T01551012  RH  032%=      5-min Rain = 0
KLA1 142211Z 02008KT 16/M01 A303 RMK A01 T01551011  RH  032%=      5-min Rain = 0
KLA1 142212Z 02007KT 16/M01 A303 RMK A01 T01551011  RH  032%=      5-min Rain = 0
KLA1 142213Z 01007G12KT 15/M01 A303 RMK A01 T01541012  RH  032%=      5-min Rain = 0
KLA1 142214Z 01005KT 16/M01 A303 RMK A01 T01551008  RH  033%=      5-min Rain = 0
KLA1 142215Z 36007KT 16/M01 A303 RMK A01 T01571010  RH  032%=      5-min Rain = 0
KLA1 142216Z 36007KT 16/M01 A303 RMK A01 T01571011  RH  032%=      5-min Rain = 0
KLA1 142217Z 00004KT 16/M01 A303 RMK A01 T01571011  RH  032%=      5-min Rain = 0
KLA1 142218Z 01003KT 16/M01 A303 RMK A01 T01571010  RH  032%=      5-min Rain = 0
KLA1 142219Z 02007KT 16/M01 A303 RMK A01 T01571010  RH  032%=      5-min Rain = 0
KLA1 142220Z 01007KT 16/M01 A303 RMK A01 T01581010  RH  032%=      5-min Rain = 0
KLA1 142221Z 01010KT 16/M01 A303 RMK A01 T01581011  RH  032%=      5-min Rain = 0
KLA1 142222Z 01011KT 16/M01 A303 RMK A01 T01571011  RH  032%=      5-min Rain = 0
KLA1 142223Z 36010KT 16/M01 A303 RMK A01 T01571011  RH  032%=      5-min Rain = 0
KLA1 142224Z 01007KT 16/M01 A303 RMK A01 T01561013  RH  031%=      5-min Rain = 0
KLA1 142225Z 01007KT 15/M01 A303 RMK A01 T01541012  RH  032%=      5-min Rain = 0
KLA1 142226Z 03007KT 15/M01 A303 RMK A01 T01541012  RH  032%=      5-min Rain = 0
KLA1 142227Z 01008KT 15/M01 A303 RMK A01 T01531014  RH  032%=      5-min Rain = 0
KLA1 142228Z 02006KT 15/M01 A303 RMK A01 T01521014  RH  032%=      5-min Rain = 0
KLA1 142229Z 02004KT 15/M01 A303 RMK A01 T01521014  RH  032%=      5-min Rain = 0
KLA1 142230Z 05007KT 15/M01 A3031 RMK A01 T01521013  RH  032%=      5-min Rain = 0
KLA1 142231Z 04005KT 15/M01 A3031 RMK A01 T01531014  RH  032%=      5-min Rain = 0
KLA1 142232Z 03005KT 15/M01 A3031 RMK A01 T01541012  RH  032%=      5-min Rain = 0
KLA1 142233Z 03005KT 15/M01 A3031 RMK A01 T01541011  RH  032%=      5-min Rain = 0
KLA1 142234Z 03007KT 15/M01 A3031 RMK A01 T01541011  RH  032%=      5-min Rain = 0
KLA1 142235Z 03006KT 15/M01 A3031 RMK A01 T01541013  RH  032%=      5-min Rain = 0
KLA1 142236Z 03006KT 15/M01 A3031 RMK A01 T01531012  RH  032%=      5-min Rain = 0
KLA1 142237Z 04007KT 15/M01 A3031 RMK A01 T01521012  RH  033%=      5-min Rain = 0
KLA1 142238Z 04004KT 15/M01 A3031 RMK A01 T01511013  RH  032%=      5-min Rain = 0
KLA1 142239Z 02005KT 15/M01 A3031 RMK A01 T01511012  RH  033%=      5-min Rain = 0
KLA1 142240Z 36010KT 15/M01 A3031 RMK A01 T01501013  RH  033%=      5-min Rain = 0
KLA1 142241Z 01008KT 15/M01 A3031 RMK A01 T01491014  RH  033%=      5-min Rain = 0
KLA1 142242Z 01008KT 15/M02 A3031 RMK A01 T01481015  RH  033%=      5-min Rain = 0
KLA1 142243Z 03007KT 15/M01 A3031 RMK A01 T01471013  RH  033%=      5-min Rain = 0
KLA1 142244Z 02009KT 15/M01 A3031 RMK A01 T01461014  RH  033%=      5-min Rain = 0
KLA1 142245Z 02009KT 15/M02 A3031 RMK A01 T01451016  RH  033%=      5-min Rain = 0
KLA1 142246Z 01007KT 14/M02 A3031 RMK A01 T01441016  RH  033%=      5-min Rain = 0
KLA1 142247Z 00006KT 14/M02 A3031 RMK A01 T01441015  RH  033%=      5-min Rain = 0
KLA1 142248Z 36008KT 14/M02 A3031 RMK A01 T01441016  RH  033%=      5-min Rain = 0
KLA1 142249Z 00007KT 14/M02 A3031 RMK A01 T01441017  RH  033%=      5-min Rain = 0
KLA1 142250Z 00007KT 15/M02 A3031 RMK A01 T01461017  RH  033%=      5-min Rain = 0
KLA1 142251Z 01007KT 15/M02 A3031 RMK A01 T01461016  RH  033%=      5-min Rain = 0
KLA1 142252Z 01006KT 15/M02 A3031 RMK A01 T01471016  RH  033%=      5-min Rain = 0
KLA1 142253Z 01006KT 15/M02 A3031 RMK A01 T01471015  RH  033%=      5-min Rain = 0
KLA1 142254Z 01006KT 15/M01 A3031 RMK A01 T01481014  RH  033%=      5-min Rain = 0
KLA1 142255Z 00005KT 15/M02 A3031 RMK A01 T01481016  RH  032%=      5-min Rain = 0
KLA1 142256Z 01007KT 15/M02 A3032 RMK A01 T01481016  RH  032%=      5-min Rain = 0
KLA1 142257Z 01007KT 15/M02 A3032 RMK A01 T01471016  RH  032%=      5-min Rain = 0
KLA1 142258Z 01007KT 15/M02 A3032 RMK A01 T01471017  RH  032%=      5-min Rain = 0
KLA1 142259Z 01006KT 15/M02 A3032 RMK A01 T01471017  RH  032%=      5-min Rain = 0
KLA1 142300Z 01004KT 15/M02 A3032 RMK A01 T01471017  RH  032%=      5-min Rain = 0
KLA1 142301Z 36006KT 15/M02 A3032 RMK A01 T01471017  RH  032%=      5-min Rain = 0
KLA1 142302Z 36007KT 15/M02 A3031 RMK A01 T01471017  RH  032%=      5-min Rain = 0
KLA1 142303Z 00005KT 15/M02 A3031 RMK A01 T01461018  RH  032%=      5-min Rain = 0
KLA1 142304Z 36005KT 15/M02 A3031 RMK A01 T01461016  RH  033%=      5-min Rain = 0
KLA1 142305Z 00007KT 15/M02 A3031 RMK A01 T01451015  RH  033%=      5-min Rain = 0
KLA1 142306Z 00005KT 15/M02 A3031 RMK A01 T01451017  RH  033%=      5-min Rain = 0
KLA1 142307Z 00005KT 14/M02 A3032 RMK A01 T01441017  RH  033%=      5-min Rain = 0
KLA1 142308Z 02004KT 14/M02 A3032 RMK A01 T01441016  RH  033%=      5-min Rain = 0
KLA1 142309Z 02004KT 14/M02 A3032 RMK A01 T01441015  RH  033%=      5-min Rain = 0
KLA1 142310Z 02002KT 14/M02 A3032 RMK A01 T01441015  RH  034%=      5-min Rain = 0
KLA1 142311Z 01003KT 14/M02 A3032 RMK A01 T01441015  RH  034%=      5-min Rain = 0
KLA1 142312Z 02003KT 14/M01 A3032 RMK A01 T01441013  RH  034%=      5-min Rain = 0
KLA1 142313Z 02004KT 14/M01 A3032 RMK A01 T01441012  RH  034%=      5-min Rain = 0
KLA1 142314Z 01003KT 14/M01 A3032 RMK A01 T01441013  RH  034%=      5-min Rain = 0
KLA1 142315Z 01003KT 14/M01 A3032 RMK A01 T01441012  RH  034%=      5-min Rain = 0
KLA1 142316Z 02002KT 14/M01 A3032 RMK A01 T01441012  RH  034%=      5-min Rain = 0
KLA1 142317Z 01002KT 14/M01 A3032 RMK A01 T01441012  RH  034%=      5-min Rain = 0
KLA1 142318Z 36003KT 14/M01 A3032 RMK A01 T01431012  RH  034%=      5-min Rain = 0
KLA1 142319Z 35004KT 14/M01 A3032 RMK A01 T01431012  RH  034%=      5-min Rain = 0
KLA1 142320Z 01003KT 14/M01 A3032 RMK A01 T01421012  RH  035%=      5-min Rain = 0
KLA1 142321Z 01003KT 14/M01 A3032 RMK A01 T01411012  RH  035%=      5-min Rain = 0
KLA1 142322Z 00003KT 14/M01 A3032 RMK A01 T01401012  RH  035%=      5-min Rain = 0
KLA1 142323Z 36003KT 14/M01 A3032 RMK A01 T01401012  RH  035%=      5-min Rain = 0
KLA1 142324Z 36003KT 14/M01 A3032 RMK A01 T01391011  RH  036%=      5-min Rain = 0
KLA1 142325Z 00002KT 14/M01 A3032 RMK A01 T01381009  RH  036%=      5-min Rain = 0
KLA1 142326Z 01003KT 14/M01 A3032 RMK A01 T01381009  RH  036%=      5-min Rain = 0
KLA1 142327Z 01003KT 14/M01 A3032 RMK A01 T01371009  RH  037%=      5-min Rain = 0
KLA1 142328Z 00004KT 14/M01 A3032 RMK A01 T01361007  RH  037%=      5-min Rain = 0
KLA1 142329Z 00003KT 14/M01 A3032 RMK A01 T01351008  RH  037%=      5-min Rain = 0
KLA1 142330Z 02002KT 14/M01 A3033 RMK A01 T01351007  RH  038%=      5-min Rain = 0
KLA1 142331Z 36003KT 13/M01 A3033 RMK A01 T01341007  RH  038%=      5-min Rain = 0
KLA1 142332Z 02003KT 13/M01 A3033 RMK A01 T01341008  RH  038%=      5-min Rain = 0
KLA1 142333Z 03004KT 13/M01 A3033 RMK A01 T01331008  RH  038%=      5-min Rain = 0
KLA1 142334Z 02005KT 13/M01 A3033 RMK A01 T01331009  RH  038%=      5-min Rain = 0
KLA1 142335Z 00004KT 13/M01 A3033 RMK A01 T01331009  RH  037%=      5-min Rain = 0
KLA1 142336Z 03006KT 13/M01 A3033 RMK A01 T01331009  RH  037%=      5-min Rain = 0
KLA1 142337Z 01005KT 13/M01 A3033 RMK A01 T01341010  RH  037%=      5-min Rain = 0
KLA1 142338Z 01005KT 13/M01 A3033 RMK A01 T01341010  RH  037%=      5-min Rain = 0
KLA1 142339Z 02003KT 13/M01 A3033 RMK A01 T01341007  RH  038%=      5-min Rain = 0
KLA1 142340Z 03004KT 13/M01 A3033 RMK A01 T01331006  RH  038%=      5-min Rain = 0
KLA1 142341Z 01003KT 13/M01 A3033 RMK A01 T01321006  RH  039%=      5-min Rain = 0
KLA1 142342Z 02003KT 13/M01 A3033 RMK A01 T01311005  RH  039%=      5-min Rain = 0
KLA1 142343Z 02003KT 13/M01 A3033 RMK A01 T01301006  RH  039%=      5-min Rain = 0
KLA1 142344Z 02004KT 13/M01 A3033 RMK A01 T01301006  RH  039%=      5-min Rain = 0
KLA1 142345Z 01004KT 13/M01 A3033 RMK A01 T01291006  RH  039%=      5-min Rain = 0
KLA1 142346Z 02004KT 13/M01 A3033 RMK A01 T01281005  RH  040%=      5-min Rain = 0
KLA1 142347Z 01004KT 13/M01 A3033 RMK A01 T01281006  RH  040%=      5-min Rain = 0
KLA1 142348Z 03003KT 13/M01 A3033 RMK A01 T01271006  RH  040%=      5-min Rain = 0
KLA1 142349Z 02004KT 13/M01 A3033 RMK A01 T01271006  RH  040%=      5-min Rain = 0
KLA1 142350Z 02004KT 13/M01 A3033 RMK A01 T01271005  RH  040%=      5-min Rain = 0
KLA1 142351Z 02004KT 13/M01 A3033 RMK A01 T01261006  RH  040%=      5-min Rain = 0
KLA1 142352Z 03004KT 13/M01 A3033 RMK A01 T01261006  RH  040%=      5-min Rain = 0
KLA1 142353Z 03004KT 13/M01 A3034 RMK A01 T01261006  RH  040%=      5-min Rain = 0
KLA1 142354Z 02003KT 13/M01 A3034 RMK A01 T01261006  RH  040%=      5-min Rain = 0
KLA1 142355Z 02003KT 13/M01 A3034 RMK A01 T01251005  RH  041%=      5-min Rain = 0
KLA1 142356Z 03003KT 13/M01 A3034 RMK A01 T01251006  RH  041%=      5-min Rain = 0
KLA1 142357Z 02004KT 12/M01 A3034 RMK A01 T01241005  RH  041%=      5-min Rain = 0
KLA1 142358Z 02004KT 12/M01 A3034 RMK A01 T01241006  RH  041%=      5-min Rain = 0
KLA1 142359Z 02003KT 12/M01 A3034 RMK A01 T01241006  RH  041%=      5-min Rain = 0
KLA1 150000Z 02003KT 12/M00 A3034 RMK A01 T01231004  RH  041%=      5-min Rain = 0
KLA1 150001Z 03004KT 12/M00 A3034 RMK A01 T01221003  RH  042%=      5-min Rain = 0
KLA1 150002Z 03005KT 12/M01 A3034 RMK A01 T01221005  RH  042%=      5-min Rain = 0
KLA1 150003Z 04004KT 12/M01 A3034 RMK A01 T01221005  RH  042%=      5-min Rain = 0
KLA1 150004Z 04003KT 12/M01 A3034 RMK A01 T01211005  RH  042%=      5-min Rain = 0
KLA1 150005Z 04003KT 12/M01 A3034 RMK A01 T01211005  RH  042%=      5-min Rain = 0
KLA1 150006Z 04004KT 12/M00 A3034 RMK A01 T01211004  RH  042%=      5-min Rain = 0
KLA1 150007Z 04003KT 12/M01 A3034 RMK A01 T01201005  RH  042%=      5-min Rain = 0
KLA1 150008Z 03004KT 12/M01 A3034 RMK A01 T01201005  RH  042%=      5-min Rain = 0
KLA1 150009Z 03003KT 12/M00 A3034 RMK A01 T01201004  RH  042%=      5-min Rain = 0
KLA1 150010Z 03002KT 12/M00 A3034 RMK A01 T01191004  RH  043%=      5-min Rain = 0
KLA1 150011Z 03003KT 12/M01 A3034 RMK A01 T01181005  RH  043%=      5-min Rain = 0
KLA1 150012Z 03003KT 12/M00 A3034 RMK A01 T01181003  RH  043%=      5-min Rain = 0
KLA1 150013Z 03003KT 12/M00 A3034 RMK A01 T01171004  RH  043%=      5-min Rain = 0
KLA1 150014Z 03002KT 12/M00 A3034 RMK A01 T01161003  RH  044%=      5-min Rain = 0
KLA1 150015Z 02003KT 12/M00 A3034 RMK A01 T01151003  RH  044%=      5-min Rain = 0
KLA1 150016Z 02003KT 11/M00 A3034 RMK A01 T01141003  RH  044%=      5-min Rain = 0
KLA1 150017Z 02003KT 11/M00 A3035 RMK A01 T01131004  RH  044%=      5-min Rain = 0
KLA1 150018Z 02003KT 11/M00 A3035 RMK A01 T01131003  RH  045%=      5-min Rain = 0
KLA1 150019Z 01003KT 11/M00 A3035 RMK A01 T01121004  RH  045%=      5-min Rain = 0
KLA1 150020Z 01003KT 11/M00 A3035 RMK A01 T01121003  RH  045%=      5-min Rain = 0
KLA1 150021Z 01003KT 11/M00 A3035 RMK A01 T01111002  RH  046%=      5-min Rain = 0
KLA1 150022Z 01003KT 11/M00 A3035 RMK A01 T01101002  RH  046%=      5-min Rain = 0
KLA1 150023Z 01003KT 11/M00 A3035 RMK A01 T01091002  RH  046%=      5-min Rain = 0
KLA1 150024Z 02003KT 11/M00 A3035 RMK A01 T01081003  RH  046%=      5-min Rain = 0
KLA1 150025Z 02003KT 11/M00 A3035 RMK A01 T01081003  RH  046%=      5-min Rain = 0
KLA1 150026Z 02003KT 11/M00 A3035 RMK A01 T01071003  RH  047%=      5-min Rain = 0
KLA1 150027Z 02003KT 11/M00 A3035 RMK A01 T01061003  RH  047%=      5-min Rain = 0
KLA1 150028Z 03003KT 11/M00 A3035 RMK A01 T01061003  RH  047%=      5-min Rain = 0
KLA1 150029Z 02004KT 11/M00 A3035 RMK A01 T01061003  RH  047%=      5-min Rain = 0
KLA1 150030Z 03003KT 11/M00 A3035 RMK A01 T01051003  RH  047%=      5-min Rain = 0
KLA1 150031Z 03003KT 11/M00 A3035 RMK A01 T01051002  RH  048%=      5-min Rain = 0
KLA1 150032Z 02003KT 10/M00 A3035 RMK A01 T01041002  RH  047%=      5-min Rain = 0
KLA1 150033Z 03003KT 10/M00 A3035 RMK A01 T01041002  RH  048%=      5-min Rain = 0
KLA1 150034Z 02003KT 10/M00 A3035 RMK A01 T01041003  RH  048%=      5-min Rain = 0
KLA1 150035Z 02003KT 10/M00 A3036 RMK A01 T01031003  RH  048%=      5-min Rain = 0
KLA1 150036Z 02003KT 10/M00 A3036 RMK A01 T01031003  RH  048%=      5-min Rain = 0
KLA1 150037Z 02003KT 10/M00 A3036 RMK A01 T01031002  RH  048%=      5-min Rain = 0
KLA1 150038Z 02004KT 10/M00 A3036 RMK A01 T01021002  RH  048%=      5-min Rain = 0
KLA1 150039Z 02004KT 10/M00 A3036 RMK A01 T01021002  RH  049%=      5-min Rain = 0
KLA1 150040Z 03003KT 10/M00 A3036 RMK A01 T01021002  RH  049%=      5-min Rain = 0
KLA1 150041Z 02003KT 10/M00 A3036 RMK A01 T01021002  RH  048%=      5-min Rain = 0
KLA1 150042Z 02004KT 10/M00 A3036 RMK A01 T01021001  RH  049%=      5-min Rain = 0
KLA1 150043Z 02003KT 10/00 A3036 RMK A01 T010100-0  RH  049%=      5-min Rain = 0
KLA1 150044Z 02003KT 10/M00 A3036 RMK A01 T01011001  RH  049%=      5-min Rain = 0
KLA1 150045Z 01003KT 10/00 A3036 RMK A01 T01000000  RH  050%=      5-min Rain = 0
KLA1 150046Z 01003KT 10/00 A3036 RMK A01 T009900-0  RH  050%=      5-min Rain = 0
KLA1 150047Z 02003KT 10/M00 A3036 RMK A01 T00991001  RH  050%=      5-min Rain = 0
KLA1 150048Z 02003KT 10/00 A3036 RMK A01 T009800-0  RH  050%=      5-min Rain = 0
KLA1 150049Z 02003KT 10/00 A3036 RMK A01 T009700-0  RH  051%=      5-min Rain = 0
KLA1 150050Z 01003KT 10/00 A3036 RMK A01 T00960000  RH  051%=      5-min Rain = 0
KLA1 150051Z 02003KT 10/00 A3036 RMK A01 T00950000  RH  052%=      5-min Rain = 0
KLA1 150052Z 02003KT 10/00 A3036 RMK A01 T009500-0  RH  052%=      5-min Rain = 0
KLA1 150053Z 02003KT 10/00 A3036 RMK A01 T00950001  RH  052%=      5-min Rain = 0
KLA1 150054Z 02003KT 09/00 A3036 RMK A01 T00940001  RH  052%=      5-min Rain = 0
KLA1 150055Z 02003KT 09/00 A3036 RMK A01 T00940001  RH  052%=      5-min Rain = 0
KLA1 150056Z 02003KT 09/00 A3036 RMK A01 T00930000  RH  052%=      5-min Rain = 0
KLA1 150057Z 02003KT 09/00 A3036 RMK A01 T009300-0  RH  052%=      5-min Rain = 0
KLA1 150058Z 03003KT 09/00 A3036 RMK A01 T009300-0  RH  052%=      5-min Rain = 0
KLA1 150059Z 03003KT 09/00 A3037 RMK A01 T009300-0  RH  052%=      5-min Rain = 0
KLA1 150100Z 02003KT 09/00 A3037 RMK A01 T00930001  RH  052%=      5-min Rain = 0
KLA1 150101Z 02003KT 09/00 A3037 RMK A01 T00920001  RH  053%=      5-min Rain = 0
KLA1 150102Z 02003KT 09/00 A3037 RMK A01 T00920002  RH  054%=      5-min Rain = 0
KLA1 150103Z 02004KT 09/00 A3037 RMK A01 T00910003  RH  054%=      5-min Rain = 0
KLA1 150104Z 01004KT 09/00 A3037 RMK A01 T00900002  RH  054%=      5-min Rain = 0
KLA1 150105Z 01003KT 09/00 A3037 RMK A01 T00900002  RH  054%=      5-min Rain = 0
KLA1 150106Z 01004KT 09/00 A3037 RMK A01 T00900001  RH  054%=      5-min Rain = 0
KLA1 150107Z 00003KT 09/00 A3037 RMK A01 T00900001  RH  054%=      5-min Rain = 0
KLA1 150108Z 00004KT 09/00 A3037 RMK A01 T00900000  RH  053%=      5-min Rain = 0
KLA1 150109Z 00004KT 09/00 A3037 RMK A01 T00910000  RH  053%=      5-min Rain = 0
KLA1 150110Z 00004KT 09/00 A3037 RMK A01 T00920001  RH  053%=      5-min Rain = 0
KLA1 150111Z 36004KT 09/00 A3037 RMK A01 T00920001  RH  053%=      5-min Rain = 0
KLA1 150112Z 36004KT 09/00 A3037 RMK A01 T00920001  RH  053%=      5-min Rain = 0
KLA1 150113Z 36004KT 09/00 A3037 RMK A01 T00920002  RH  053%=      5-min Rain = 0
KLA1 150114Z 36004KT 09/00 A3037 RMK A01 T00910002  RH  054%=      5-min Rain = 0
KLA1 150115Z 35004KT 09/00 A3037 RMK A01 T00900002  RH  054%=      5-min Rain = 0
KLA1 150116Z 36004KT 09/00 A3037 RMK A01 T00900002  RH  054%=      5-min Rain = 0
KLA1 150117Z 00004KT 09/00 A3038 RMK A01 T00900001  RH  054%=      5-min Rain = 0
KLA1 150118Z 00004KT 09/00 A3038 RMK A01 T00900001  RH  054%=      5-min Rain = 0
KLA1 150119Z 00004KT 09/00 A3038 RMK A01 T00900001  RH  054%=      5-min Rain = 0
KLA1 150120Z 00003KT 09/00 A3038 RMK A01 T00900000  RH  053%=      5-min Rain = 0
KLA1 150121Z 00003KT 09/00 A3038 RMK A01 T009000-0  RH  053%=      5-min Rain = 0
KLA1 150122Z 36003KT 09/00 A3038 RMK A01 T00900000  RH  053%=      5-min Rain = 0
KLA1 150123Z 36003KT 09/00 A3038 RMK A01 T009000-0  RH  053%=      5-min Rain = 0
KLA1 150124Z 36004KT 09/00 A3038 RMK A01 T009000-0  RH  053%=      5-min Rain = 0
KLA1 150125Z 36004KT 09/M00 A3038 RMK A01 T00911001  RH  052%=      5-min Rain = 0
KLA1 150126Z 36003KT 09/M00 A3038 RMK A01 T00921001  RH  052%=      5-min Rain = 0
KLA1 150127Z 36003KT 09/M00 A3038 RMK A01 T00931002  RH  052%=      5-min Rain = 0
KLA1 150128Z 36003KT 09/M00 A3038 RMK A01 T00931002  RH  051%=      5-min Rain = 0
KLA1 150129Z 00003KT 09/M00 A3038 RMK A01 T00931002  RH  051%=      5-min Rain = 0
KLA1 150130Z 00003KT 09/M00 A3038 RMK A01 T00941003  RH  051%=      5-min Rain = 0
KLA1 150131Z 00003KT 09/M00 A3038 RMK A01 T00941003  RH  051%=      5-min Rain = 0
KLA1 150132Z 01003KT 09/M00 A3038 RMK A01 T00941003  RH  051%=      5-min Rain = 0
KLA1 150133Z 00003KT 09/M00 A3038 RMK A01 T00941002  RH  051%=      5-min Rain = 0
KLA1 150134Z 02003KT 09/M00 A3038 RMK A01 T00941001  RH  051%=      5-min Rain = 0
KLA1 150135Z 02003KT 09/M00 A3038 RMK A01 T00931001  RH  052%=      5-min Rain = 0
KLA1 150136Z 02003KT 09/M00 A3038 RMK A01 T00921001  RH  052%=      5-min Rain = 0
KLA1 150137Z 02003KT 09/M00 A3038 RMK A01 T00911002  RH  052%=      5-min Rain = 0
KLA1 150138Z 02003KT 09/M00 A3038 RMK A01 T00911001  RH  053%=      5-min Rain = 0
KLA1 150139Z 02003KT 09/M00 A3039 RMK A01 T00901002  RH  053%=      5-min Rain = 0
KLA1 150140Z 02003KT 09/M00 A3039 RMK A01 T00891002  RH  053%=      5-min Rain = 0
KLA1 150141Z 02003KT 09/M00 A3039 RMK A01 T00901002  RH  053%=      5-min Rain = 0
KLA1 150142Z 01003KT 09/M00 A3039 RMK A01 T00891002  RH  053%=      5-min Rain = 0
KLA1 150143Z 01003KT 09/M00 A3039 RMK A01 T00891001  RH  053%=      5-min Rain = 0
KLA1 150144Z 01003KT 09/M00 A3039 RMK A01 T00881002  RH  053%=      5-min Rain = 0
KLA1 150145Z 02003KT 09/00 A3039 RMK A01 T008800-0  RH  054%=      5-min Rain = 0
KLA1 150146Z 01003KT 09/M00 A3039 RMK A01 T00881001  RH  054%=      5-min Rain = 0
KLA1 150147Z 01003KT 09/M00 A3039 RMK A01 T00881001  RH  054%=      5-min Rain = 0
KLA1 150148Z 01003KT 09/M00 A3039 RMK A01 T00881002  RH  053%=      5-min Rain = 0
KLA1 150149Z 01003KT 09/M00 A3039 RMK A01 T00881002  RH  053%=      5-min Rain = 0
KLA1 150150Z 01003KT 09/M00 A3039 RMK A01 T00881002  RH  053%=      5-min Rain = 0
KLA1 150151Z 01003KT 09/M00 A3039 RMK A01 T00881001  RH  054%=      5-min Rain = 0
KLA1 150152Z 01003KT 09/M00 A3039 RMK A01 T00871001  RH  054%=      5-min Rain = 0
KLA1 150153Z 02003KT 09/M00 A3039 RMK A01 T00871001  RH  054%=      5-min Rain = 0
KLA1 150154Z 02003KT 09/M00 A3039 RMK A01 T00861001  RH  054%=      5-min Rain = 0
KLA1 150155Z 01003KT 09/M00 A3039 RMK A01 T00861002  RH  054%=      5-min Rain = 0
KLA1 150156Z 01003KT 09/M00 A3039 RMK A01 T00861002  RH  054%=      5-min Rain = 0
KLA1 150157Z 01003KT 09/M00 A3039 RMK A01 T00871001  RH  054%=      5-min Rain = 0
KLA1 150158Z 01004KT 09/M00 A304 RMK A01 T00861001  RH  054%=      5-min Rain = 0
KLA1 150159Z 00004KT 09/M00 A304 RMK A01 T00861001  RH  054%=      5-min Rain = 0
KLA1 150200Z 01004KT 09/M00 A304 RMK A01 T00861001  RH  054%=      5-min Rain = 0
KLA1 150201Z 01003KT 09/M00 A304 RMK A01 T00861001  RH  054%=      5-min Rain = 0
KLA1 150202Z 00003KT 09/M00 A304 RMK A01 T00861001  RH  054%=      5-min Rain = 0
KLA1 150203Z 02003KT 09/M00 A304 RMK A01 T00861002  RH  054%=      5-min Rain = 0
KLA1 150204Z 02004KT 09/M00 A304 RMK A01 T00871002  RH  054%=      5-min Rain = 0
KLA1 150205Z 02003KT 09/M00 A304 RMK A01 T00861002  RH  054%=      5-min Rain = 0
KLA1 150206Z 01003KT 09/M00 A304 RMK A01 T00861003  RH  054%=      5-min Rain = 0
KLA1 150207Z 01003KT 09/M00 A304 RMK A01 T00861002  RH  054%=      5-min Rain = 0
KLA1 150208Z 02003KT 09/M00 A304 RMK A01 T00851001  RH  055%=      5-min Rain = 0
KLA1 150209Z 01003KT 08/M00 A304 RMK A01 T00841001  RH  055%=      5-min Rain = 0
KLA1 150210Z 01003KT 08/M00 A304 RMK A01 T00841001  RH  055%=      5-min Rain = 0
KLA1 150211Z 02004KT 08/M00 A304 RMK A01 T00841001  RH  055%=      5-min Rain = 0
KLA1 150212Z 01003KT 08/M00 A304 RMK A01 T00841002  RH  055%=      5-min Rain = 0
KLA1 150213Z 01003KT 08/M00 A304 RMK A01 T00841002  RH  055%=      5-min Rain = 0
KLA1 150214Z 01003KT 08/M00 A304 RMK A01 T00841002  RH  055%=      5-min Rain = 0
KLA1 150215Z 01003KT 08/M00 A304 RMK A01 T00841002  RH  055%=      5-min Rain = 0
KLA1 150216Z 02003KT 08/M00 A304 RMK A01 T00841002  RH  055%=      5-min Rain = 0
KLA1 150217Z 01003KT 08/M00 A304 RMK A01 T00841002  RH  055%=      5-min Rain = 0
KLA1 150218Z 01003KT 08/M00 A304 RMK A01 T00821001  RH  056%=      5-min Rain = 0
KLA1 150219Z 01003KT 08/M00 A304 RMK A01 T00821001  RH  056%=      5-min Rain = 0
KLA1 150220Z 01003KT 08/M00 A304 RMK A01 T00811001  RH  056%=      5-min Rain = 0
KLA1 150221Z 01004KT 08/M00 A3041 RMK A01 T00811001  RH  056%=      5-min Rain = 0
KLA1 150222Z 01003KT 08/M00 A3041 RMK A01 T00811001  RH  056%=      5-min Rain = 0
KLA1 150223Z 36004KT 08/M00 A3041 RMK A01 T00811001  RH  056%=      5-min Rain = 0
KLA1 150224Z 00003KT 08/00 A3041 RMK A01 T00800001  RH  057%=      5-min Rain = 0
KLA1 150225Z 01003KT 08/00 A3041 RMK A01 T00790001  RH  058%=      5-min Rain = 0
KLA1 150226Z 00003KT 08/00 A3041 RMK A01 T00780000  RH  058%=      5-min Rain = 0
KLA1 150227Z 01003KT 08/00 A3041 RMK A01 T007800-0  RH  057%=      5-min Rain = 0
KLA1 150228Z 35003KT 08/00 A3041 RMK A01 T007800-0  RH  058%=      5-min Rain = 0
KLA1 150229Z 35003KT 08/00 A3041 RMK A01 T00780001  RH  058%=      5-min Rain = 0
KLA1 150230Z 36003KT 08/00 A3041 RMK A01 T00770001  RH  058%=      5-min Rain = 0
KLA1 150231Z 03003KT 08/00 A3041 RMK A01 T00760000  RH  058%=      5-min Rain = 0
KLA1 150232Z 02003KT 08/M00 A3041 RMK A01 T00761001  RH  058%=      5-min Rain = 0
KLA1 150233Z 01002KT 08/00 A3041 RMK A01 T007700-0  RH  058%=      5-min Rain = 0
KLA1 150234Z 00003KT 08/M00 A3041 RMK A01 T00771001  RH  058%=      5-min Rain = 0
KLA1 150235Z 01003KT 08/M00 A3041 RMK A01 T00771001  RH  058%=      5-min Rain = 0
KLA1 150236Z 01003KT 08/00 A3041 RMK A01 T007700-0  RH  058%=      5-min Rain = 0
KLA1 150237Z 02003KT 08/00 A3041 RMK A01 T00760000  RH  059%=      5-min Rain = 0
KLA1 150238Z 02003KT 08/00 A3041 RMK A01 T00750000  RH  059%=      5-min Rain = 0
KLA1 150239Z 01003KT 08/00 A3041 RMK A01 T00750000  RH  059%=      5-min Rain = 0
KLA1 150240Z 00003KT 07/00 A3041 RMK A01 T007400-0  RH  059%=      5-min Rain = 0
KLA1 150241Z 00003KT 07/00 A3042 RMK A01 T00740000  RH  060%=      5-min Rain = 0
KLA1 150242Z 01003KT 07/00 A3042 RMK A01 T00730000  RH  060%=      5-min Rain = 0
KLA1 150243Z 02003KT 07/00 A3042 RMK A01 T00730001  RH  060%=      5-min Rain = 0
KLA1 150244Z 01003KT 07/00 A3042 RMK A01 T00730001  RH  060%=      5-min Rain = 0
KLA1 150245Z 01003KT 07/00 A3042 RMK A01 T00720001  RH  060%=      5-min Rain = 0
KLA1 150246Z 02003KT 07/00 A3042 RMK A01 T00720000  RH  060%=      5-min Rain = 0
KLA1 150247Z 02003KT 07/00 A3042 RMK A01 T00720000  RH  060%=      5-min Rain = 0
KLA1 150248Z 02003KT 07/00 A3042 RMK A01 T00720001  RH  060%=      5-min Rain = 0
KLA1 150249Z 01003KT 07/00 A3042 RMK A01 T00710000  RH  061%=      5-min Rain = 0
KLA1 150250Z 01003KT 07/00 A3042 RMK A01 T00710001  RH  061%=      5-min Rain = 0
KLA1 150251Z 02003KT 07/00 A3042 RMK A01 T00700001  RH  061%=      5-min Rain = 0
KLA1 150252Z 02003KT 07/00 A3042 RMK A01 T00690001  RH  062%=      5-min Rain = 0
KLA1 150253Z 02002KT 07/00 A3042 RMK A01 T00690001  RH  062%=      5-min Rain = 0
KLA1 150254Z 03003KT 07/00 A3042 RMK A01 T00690001  RH  062%=      5-min Rain = 0
KLA1 150255Z 02002KT 07/00 A3042 RMK A01 T00680001  RH  062%=      5-min Rain = 0
KLA1 150256Z 02002KT 07/00 A3042 RMK A01 T00680001  RH  062%=      5-min Rain = 0
KLA1 150257Z 02002KT 07/00 A3042 RMK A01 T00680001  RH  062%=      5-min Rain = 0
KLA1 150258Z 02002KT 07/00 A3042 RMK A01 T00670001  RH  063%=      5-min Rain = 0
KLA1 150259Z 02002KT 07/00 A3042 RMK A01 T00670002  RH  063%=      5-min Rain = 0
KLA1 150300Z 02002KT 07/00 A3042 RMK A01 T00670001  RH  063%=      5-min Rain = 0
KLA1 150301Z 02003KT 07/00 A3042 RMK A01 T00660001  RH  063%=      5-min Rain = 0
KLA1 150302Z 02003KT 07/00 A3042 RMK A01 T00660001  RH  063%=      5-min Rain = 0
KLA1 150303Z 02003KT 07/00 A3042 RMK A01 T00650001  RH  064%=      5-min Rain = 0
KLA1 150304Z 03003KT 07/00 A3042 RMK A01 T00650001  RH  064%=      5-min Rain = 0
KLA1 150305Z 03003KT 07/00 A3042 RMK A01 T00650001  RH  064%=      5-min Rain = 0
KLA1 150306Z 03003KT 06/00 A3042 RMK A01 T00640001  RH  064%=      5-min Rain = 0
KLA1 150307Z 03003KT 06/00 A3042 RMK A01 T00640001  RH  064%=      5-min Rain = 0
KLA1 150308Z 03003KT 06/00 A3042 RMK A01 T00640001  RH  064%=      5-min Rain = 0
KLA1 150309Z 03003KT 06/00 A3042 RMK A01 T00640001  RH  064%=      5-min Rain = 0
KLA1 150310Z 04003KT 06/00 A3042 RMK A01 T00630001  RH  064%=      5-min Rain = 0
KLA1 150311Z 04002KT 06/00 A3042 RMK A01 T00630000  RH  064%=      5-min Rain = 0
KLA1 150312Z 03001KT 06/00 A3042 RMK A01 T00610000  RH  065%=      5-min Rain = 0
KLA1 150313Z 02000KT 06/00 A3042 RMK A01 T00580000  RH  066%=      5-min Rain = 0
KLA1 150314Z 00000KT 06/00 A3042 RMK A01 T00550001  RH  068%=      5-min Rain = 0
KLA1 150315Z 00000KT 05/00 A3042 RMK A01 T00530001  RH  069%=      5-min Rain = 0
KLA1 150316Z 08000KT 05/00 A3042 RMK A01 T00510001  RH  070%=      5-min Rain = 0
KLA1 150317Z 07000KT 05/00 A3042 RMK A01 T00500001  RH  071%=      5-min Rain = 0
KLA1 150318Z 09000KT 05/00 A3042 RMK A01 T00480001  RH  072%=      5-min Rain = 0
KLA1 150319Z 00000KT 05/00 A3042 RMK A01 T00470001  RH  072%=      5-min Rain = 0
KLA1 150320Z 00000KT 05/00 A3042 RMK A01 T00460001  RH  072%=      5-min Rain = 0
KLA1 150321Z 00000KT 05/00 A3042 RMK A01 T00450001  RH  073%=      5-min Rain = 0
KLA1 150322Z 02000KT 05/00 A3042 RMK A01 T00450001  RH  074%=      5-min Rain = 0
KLA1 150323Z 01000KT 04/00 A3042 RMK A01 T00440002  RH  074%=      5-min Rain = 0
KLA1 150324Z 03001KT 04/00 A3042 RMK A01 T00440002  RH  074%=      5-min Rain = 0
KLA1 150325Z 04001KT 04/00 A3042 RMK A01 T00430001  RH  074%=      5-min Rain = 0
KLA1 150326Z 05000KT 04/00 A3042 RMK A01 T00420001  RH  075%=      5-min Rain = 0
KLA1 150327Z 04000KT 04/00 A3043 RMK A01 T00420002  RH  075%=      5-min Rain = 0
KLA1 150328Z 04000KT 04/00 A3043 RMK A01 T00420001  RH  075%=      5-min Rain = 0
KLA1 150329Z 00000KT 04/00 A3043 RMK A01 T00410001  RH  075%=      5-min Rain = 0
KLA1 150330Z 04000KT 04/00 A3043 RMK A01 T00410001  RH  075%=      5-min Rain = 0
KLA1 150331Z 00000KT 04/00 A3043 RMK A01 T00410001  RH  075%=      5-min Rain = 0
KLA1 150332Z 00000KT 04/00 A3043 RMK A01 T00400000  RH  075%=      5-min Rain = 0
KLA1 150333Z 00000KT 04/00 A3043 RMK A01 T00400001  RH  076%=      5-min Rain = 0
KLA1 150334Z 00000KT 04/00 A3043 RMK A01 T00390001  RH  076%=      5-min Rain = 0
KLA1 150335Z 29000KT 04/00 A3043 RMK A01 T00380002  RH  077%=      5-min Rain = 0
KLA1 150336Z 29001KT 04/00 A3043 RMK A01 T00380003  RH  078%=      5-min Rain = 0
KLA1 150337Z 26001KT 04/00 A3043 RMK A01 T00380003  RH  078%=      5-min Rain = 0
KLA1 150338Z 26001KT 04/00 A3043 RMK A01 T00380003  RH  078%=      5-min Rain = 0
KLA1 150339Z 28001KT 04/00 A3043 RMK A01 T00370003  RH  078%=      5-min Rain = 0
KLA1 150340Z 29002KT 04/00 A3043 RMK A01 T00370003  RH  078%=      5-min Rain = 0
KLA1 150341Z 30002KT 04/00 A3043 RMK A01 T00360003  RH  079%=      5-min Rain = 0
KLA1 150342Z 30002KT 04/00 A3043 RMK A01 T00360003  RH  079%=      5-min Rain = 0
KLA1 150343Z 30001KT 04/00 A3043 RMK A01 T00360004  RH  080%=      5-min Rain = 0
KLA1 150344Z 30001KT 04/00 A3043 RMK A01 T00360004  RH  080%=      5-min Rain = 0
KLA1 150345Z 31001KT 04/00 A3043 RMK A01 T00360004  RH  080%=      5-min Rain = 0
KLA1 150346Z 32001KT 04/00 A3043 RMK A01 T00360004  RH  080%=      5-min Rain = 0
KLA1 150347Z 32000KT 04/00 A3043 RMK A01 T00350004  RH  080%=      5-min Rain = 0
KLA1 150348Z 00000KT 04/00 A3043 RMK A01 T00350003  RH  080%=      5-min Rain = 0
KLA1 150349Z 00000KT 03/00 A3043 RMK A01 T00340002  RH  080%=      5-min Rain = 0
KLA1 150350Z 00000KT 03/00 A3043 RMK A01 T00330001  RH  080%=      5-min Rain = 0
KLA1 150351Z 00000KT 03/00 A3043 RMK A01 T00320001  RH  080%=      5-min Rain = 0
KLA1 150352Z 19000KT 03/00 A3043 RMK A01 T00320001  RH  080%=      5-min Rain = 0
KLA1 150353Z 18001KT 03/00 A3043 RMK A01 T00310001  RH  081%=      5-min Rain = 0
KLA1 150354Z 18001KT 03/00 A3043 RMK A01 T00310002  RH  081%=      5-min Rain = 0
KLA1 150355Z 20001KT 03/00 A3043 RMK A01 T00310002  RH  081%=      5-min Rain = 0
KLA1 150356Z 22000KT 03/00 A3043 RMK A01 T00310001  RH  081%=      5-min Rain = 0
KLA1 150357Z 00000KT 03/00 A3043 RMK A01 T00300001  RH  081%=      5-min Rain = 0
KLA1 150358Z 00000KT 03/00 A3043 RMK A01 T00300001  RH  081%=      5-min Rain = 0
KLA1 150359Z 00000KT 03/00 A3043 RMK A01 T00300001  RH  081%=      5-min Rain = 0
KLA1 150400Z 00000KT 03/00 A3043 RMK A01 T00300001  RH  081%=      5-min Rain = 0
KLA1 150401Z 00000KT 03/00 A3043 RMK A01 T00300001  RH  081%=      5-min Rain = 0
KLA1 150402Z 24000KT 03/00 A3043 RMK A01 T00300001  RH  081%=      5-min Rain = 0
KLA1 150403Z 00000KT 03/00 A3043 RMK A01 T00300001  RH  081%=      5-min Rain = 0
KLA1 150404Z 24000KT 03/00 A3043 RMK A01 T00300000  RH  081%=      5-min Rain = 0
KLA1 150405Z 25001KT 03/00 A3043 RMK A01 T00290000  RH  081%=      5-min Rain = 0
KLA1 150406Z 25001KT 03/00 A3043 RMK A01 T002900-0  RH  081%=      5-min Rain = 0
KLA1 150407Z 25000KT 03/00 A3043 RMK A01 T00290000  RH  081%=      5-min Rain = 0
KLA1 150408Z 26000KT 03/00 A3043 RMK A01 T00290001  RH  082%=      5-min Rain = 0
KLA1 150409Z 26000KT 03/00 A3043 RMK A01 T00290001  RH  082%=      5-min Rain = 0
KLA1 150410Z 25000KT 03/00 A3043 RMK A01 T00280000  RH  082%=      5-min Rain = 0
KLA1 150411Z 25000KT 03/00 A3043 RMK A01 T00280000  RH  082%=      5-min Rain = 0
KLA1 150412Z 00000KT 03/00 A3043 RMK A01 T00280000  RH  082%=      5-min Rain = 0
KLA1 150413Z 00000KT 03/00 A3043 RMK A01 T00280001  RH  082%=      5-min Rain = 0
KLA1 150414Z 00000KT 03/00 A3043 RMK A01 T00280001  RH  082%=      5-min Rain = 0
KLA1 150415Z 27000KT 03/00 A3043 RMK A01 T00280001  RH  082%=      5-min Rain = 0
KLA1 150416Z 29002KT 03/00 A3043 RMK A01 T00280001  RH  082%=      5-min Rain = 0
KLA1 150417Z 28002KT 03/00 A3043 RMK A01 T00280001  RH  082%=      5-min Rain = 0
KLA1 150418Z 27002KT 03/00 A3043 RMK A01 T00280002  RH  083%=      5-min Rain = 0
KLA1 150419Z 27002KT 03/00 A3043 RMK A01 T00290003  RH  083%=      5-min Rain = 0
KLA1 150420Z 27002KT 03/00 A3043 RMK A01 T00290003  RH  083%=      5-min Rain = 0
KLA1 150421Z 27002KT 03/00 A3043 RMK A01 T00300004  RH  083%=      5-min Rain = 0
KLA1 150422Z 26002KT 03/00 A3043 RMK A01 T00310004  RH  083%=      5-min Rain = 0
KLA1 150423Z 26001KT 03/00 A3043 RMK A01 T00320004  RH  082%=      5-min Rain = 0
KLA1 150424Z 25000KT 03/00 A3043 RMK A01 T00320004  RH  082%=      5-min Rain = 0
KLA1 150425Z 26002KT 03/00 A3043 RMK A01 T00320004  RH  082%=      5-min Rain = 0
KLA1 150426Z 25002KT 03/00 A3043 RMK A01 T00330004  RH  082%=      5-min Rain = 0
KLA1 150427Z 24001KT 03/00 A3043 RMK A01 T00340004  RH  081%=      5-min Rain = 0
KLA1 150428Z 25000KT 04/00 A3043 RMK A01 T00350004  RH  080%=      5-min Rain = 0
KLA1 150429Z 24001KT 04/00 A3043 RMK A01 T00350003  RH  080%=      5-min Rain = 0
KLA1 150430Z 25001KT 03/00 A3043 RMK A01 T00340003  RH  080%=      5-min Rain = 0
KLA1 150431Z 31001KT 03/00 A3043 RMK A01 T00330002  RH  080%=      5-min Rain = 0
KLA1 150432Z 32000KT 03/00 A3043 RMK A01 T00320003  RH  081%=      5-min Rain = 0
KLA1 150433Z 26000KT 03/00 A3043 RMK A01 T00330004  RH  081%=      5-min Rain = 0
KLA1 150434Z 00000KT 03/00 A3044 RMK A01 T00330002  RH  080%=      5-min Rain = 0
KLA1 150435Z 26000KT 03/00 A3044 RMK A01 T00320001  RH  080%=      5-min Rain = 0
KLA1 150436Z 24001KT 03/00 A3044 RMK A01 T00320002  RH  081%=      5-min Rain = 0
KLA1 150437Z 24001KT 03/00 A3044 RMK A01 T00320002  RH  081%=      5-min Rain = 0
KLA1 150438Z 26001KT 03/00 A3044 RMK A01 T00320002  RH  081%=      5-min Rain = 0
KLA1 150439Z 25001KT 03/00 A3044 RMK A01 T00310002  RH  081%=      5-min Rain = 0
KLA1 150440Z 24000KT 03/00 A3044 RMK A01 T00310002  RH  082%=      5-min Rain = 0
KLA1 150441Z 24002KT 03/00 A3044 RMK A01 T00310003  RH  082%=      5-min Rain = 0
KLA1 150442Z 24002KT 03/00 A3044 RMK A01 T00320003  RH  081%=      5-min Rain = 0
KLA1 150443Z 24002KT 03/00 A3044 RMK A01 T00330003  RH  081%=      5-min Rain = 0
KLA1 150444Z 25003KT 03/00 A3044 RMK A01 T00340003  RH  080%=      5-min Rain = 0
KLA1 150445Z 25002KT 03/00 A3044 RMK A01 T00340003  RH  080%=      5-min Rain = 0
KLA1 150446Z 26003KT 03/00 A3044 RMK A01 T00330002  RH  081%=      5-min Rain = 0
KLA1 150447Z 26003KT 03/00 A3044 RMK A01 T00320002  RH  081%=      5-min Rain = 0
KLA1 150448Z 24002KT 03/00 A3044 RMK A01 T00320003  RH  081%=      5-min Rain = 0
KLA1 150449Z 23001KT 03/00 A3044 RMK A01 T00320003  RH  081%=      5-min Rain = 0
KLA1 150450Z 23001KT 03/00 A3044 RMK A01 T00320003  RH  081%=      5-min Rain = 0
KLA1 150451Z 24000KT 03/00 A3044 RMK A01 T00310001  RH  081%=      5-min Rain = 0
KLA1 150452Z 29001KT 03/00 A3044 RMK A01 T00300002  RH  081%=      5-min Rain = 0
KLA1 150453Z 26002KT 03/00 A3044 RMK A01 T00300003  RH  082%=      5-min Rain = 0
KLA1 150454Z 25002KT 03/00 A3044 RMK A01 T00300003  RH  082%=      5-min Rain = 0
KLA1 150455Z 23001KT 03/00 A3044 RMK A01 T00320003  RH  082%=      5-min Rain = 0
KLA1 150456Z 23002KT 03/00 A3044 RMK A01 T00330003  RH  081%=      5-min Rain = 0
KLA1 150457Z 24002KT 03/00 A3044 RMK A01 T00330003  RH  081%=      5-min Rain = 0
KLA1 150458Z 24001KT 03/00 A3044 RMK A01 T00320002  RH  081%=      5-min Rain = 0
KLA1 150459Z 27001KT 03/00 A3044 RMK A01 T00310003  RH  082%=      5-min Rain = 0
KLA1 150500Z 28000KT 03/00 A3044 RMK A01 T00310003  RH  082%=      5-min Rain = 0
KLA1 150501Z 24000KT 03/00 A3044 RMK A01 T00310003  RH  082%=      5-min Rain = 0
KLA1 150502Z 23001KT 03/00 A3044 RMK A01 T00310003  RH  082%=      5-min Rain = 0
KLA1 150503Z 23000KT 03/00 A3044 RMK A01 T00310003  RH  082%=      5-min Rain = 0
KLA1 150504Z 27001KT 03/00 A3044 RMK A01 T00310003  RH  082%=      5-min Rain = 0
KLA1 150505Z 27001KT 03/00 A3044 RMK A01 T00310003  RH  082%=      5-min Rain = 0
KLA1 150506Z 27000KT 03/00 A3044 RMK A01 T00310003  RH  082%=      5-min Rain = 0
KLA1 150507Z 29000KT 03/00 A3044 RMK A01 T00290002  RH  082%=      5-min Rain = 0
KLA1 150508Z 33000KT 03/00 A3044 RMK A01 T00290002  RH  082%=      5-min Rain = 0
KLA1 150509Z 00000KT 03/00 A3044 RMK A01 T00270000  RH  082%=      5-min Rain = 0
KLA1 150510Z 34000KT 03/00 A3044 RMK A01 T00260000  RH  083%=      5-min Rain = 0
KLA1 150511Z 02001KT 03/00 A3044 RMK A01 T00260000  RH  084%=      5-min Rain = 0
KLA1 150512Z 00000KT 03/00 A3044 RMK A01 T00250000  RH  084%=      5-min Rain = 0
KLA1 150513Z 00000KT 03/00 A3044 RMK A01 T00250001  RH  084%=      5-min Rain = 0
KLA1 150514Z 00000KT 03/00 A3044 RMK A01 T00250001  RH  084%=      5-min Rain = 0
KLA1 150515Z 02000KT 03/00 A3044 RMK A01 T00250001  RH  084%=      5-min Rain = 0
KLA1 150516Z 03001KT 02/00 A3044 RMK A01 T002400-0  RH  084%=      5-min Rain = 0
KLA1 150517Z 00000KT 02/00 A3044 RMK A01 T002400-0  RH  084%=      5-min Rain = 0
KLA1 150518Z 00000KT 02/00 A3044 RMK A01 T00240000  RH  085%=      5-min Rain = 0
KLA1 150519Z 00000KT 02/M00 A3044 RMK A01 T00231001  RH  085%=      5-min Rain = 0
KLA1 150520Z 04000KT 02/M00 A3044 RMK A01 T00211003  RH  084%=      5-min Rain = 0
KLA1 150521Z 00000KT 02/M00 A3044 RMK A01 T00201002  RH  085%=      5-min Rain = 0
KLA1 150522Z 04000KT 02/M00 A3044 RMK A01 T00201001  RH  086%=      5-min Rain = 0
KLA1 150523Z 00000KT 02/00 A3044 RMK A01 T002000-0  RH  086%=      5-min Rain = 0
KLA1 150524Z 00000KT 02/00 A3044 RMK A01 T00210001  RH  087%=      5-min Rain = 0
KLA1 150525Z 00000KT 02/00 A3044 RMK A01 T00220002  RH  087%=      5-min Rain = 0
KLA1 150526Z 00000KT 02/00 A3044 RMK A01 T002100-0  RH  086%=      5-min Rain = 0
KLA1 150527Z 00000KT 02/M00 A3044 RMK A01 T00201001  RH  086%=      5-min Rain = 0
KLA1 150528Z 00000KT 02/00 A3044 RMK A01 T00220003  RH  087%=      5-min Rain = 0
KLA1 150529Z 00000KT 02/00 A3044 RMK A01 T00220002  RH  086%=      5-min Rain = 0
KLA1 150530Z 00000KT 02/M00 A3044 RMK A01 T00201003  RH  085%=      5-min Rain = 0
KLA1 150531Z 00000KT 02/M00 A3044 RMK A01 T00181004  RH  085%=      5-min Rain = 0
KLA1 150532Z 00000KT 02/M00 A3044 RMK A01 T00171003  RH  086%=      5-min Rain = 0
KLA1 150533Z 00000KT 02/M00 A3044 RMK A01 T00171003  RH  087%=      5-min Rain = 0
KLA1 150534Z 00000KT 02/M00 A3044 RMK A01 T00171002  RH  088%=      5-min Rain = 0
KLA1 150535Z 00000KT 02/00 A3044 RMK A01 T00180000  RH  088%=      5-min Rain = 0
KLA1 150536Z 01000KT 02/00 A3044 RMK A01 T001800-0  RH  088%=      5-min Rain = 0
KLA1 150537Z 24001KT 02/00 A3044 RMK A01 T00180001  RH  088%=      5-min Rain = 0
KLA1 150538Z 24001KT 02/00 A3044 RMK A01 T00190002  RH  088%=      5-min Rain = 0
KLA1 150539Z 25001KT 02/00 A3044 RMK A01 T00190001  RH  088%=      5-min Rain = 0
KLA1 150540Z 25001KT 02/M00 A3044 RMK A01 T00171001  RH  087%=      5-min Rain = 0
KLA1 150541Z 24001KT 02/M00 A3044 RMK A01 T00171001  RH  088%=      5-min Rain = 0
KLA1 150542Z 26001KT 02/00 A3044 RMK A01 T00190002  RH  089%=      5-min Rain = 0
KLA1 150543Z 28001KT 02/00 A3044 RMK A01 T00200003  RH  089%=      5-min Rain = 0
KLA1 150544Z 24001KT 02/00 A3044 RMK A01 T00200004  RH  089%=      5-min Rain = 0
KLA1 150545Z 27001KT 02/00 A3044 RMK A01 T00210003  RH  088%=      5-min Rain = 0
KLA1 150546Z 28002KT 02/00 A3044 RMK A01 T00210003  RH  088%=      5-min Rain = 0
KLA1 150547Z 27001KT 02/00 A3044 RMK A01 T00220003  RH  088%=      5-min Rain = 0
KLA1 150548Z 00000KT 02/00 A3044 RMK A01 T00220003  RH  087%=      5-min Rain = 0
KLA1 150549Z 27001KT 02/00 A3044 RMK A01 T00210000  RH  086%=      5-min Rain = 0
KLA1 150550Z 27001KT 02/00 A3044 RMK A01 T00200001  RH  087%=      5-min Rain = 0
KLA1 150551Z 25000KT 02/00 A3044 RMK A01 T00200001  RH  087%=      5-min Rain = 0
KLA1 150552Z 00000KT 02/M00 A3044 RMK A01 T00181003  RH  086%=      5-min Rain = 0
KLA1 150553Z 00000KT 02/M00 A3044 RMK A01 T00171002  RH  087%=      5-min Rain = 0
KLA1 150554Z 00000KT 02/M00 A3044 RMK A01 T00181001  RH  087%=      5-min Rain = 0
KLA1 150555Z 00000KT 02/M00 A3044 RMK A01 T00171002  RH  087%=      5-min Rain = 0
KLA1 150556Z 00000KT 02/M00 A3044 RMK A01 T00171002  RH  087%=      5-min Rain = 0
KLA1 150557Z 00000KT 02/M00 A3044 RMK A01 T00161002  RH  088%=      5-min Rain = 0
KLA1 150558Z 00000KT 02/M00 A3044 RMK A01 T00161002  RH  088%=      5-min Rain = 0
KLA1 150559Z 24001KT 02/M00 A3044 RMK A01 T00161002  RH  088%=      5-min Rain = 0

Page generated in 0.0689 seconds.